Observation data for Tahoka on 05/14/2018      Previous  Date  Next       Current Mesonet Observations  Soil Data  Daily Summary Page  Observations in Plain Language
KTAS 140500Z 18011KT 25/14 A2994 RMK A01 T02520144  RH  051%=      5-min Rain = 0
KTAS 140501Z 18011KT 25/14 A2994 RMK A01 T02520144  RH  051%=      5-min Rain = 0
KTAS 140502Z 18012KT 25/14 A2994 RMK A01 T02520144  RH  051%=      5-min Rain = 0
KTAS 140503Z 18011KT 25/14 A2994 RMK A01 T02520144  RH  051%=      5-min Rain = 0
KTAS 140504Z 18012KT 25/14 A2994 RMK A01 T02520144  RH  051%=      5-min Rain = 0
KTAS 140505Z 18011KT 25/14 A2994 RMK A01 T02520144  RH  051%=      5-min Rain = 0
KTAS 140506Z 18011KT 25/14 A2995 RMK A01 T02520144  RH  051%=      5-min Rain = 0
KTAS 140507Z 18012KT 25/14 A2995 RMK A01 T02520144  RH  051%=      5-min Rain = 0
KTAS 140508Z 18013KT 25/14 A2994 RMK A01 T02520144  RH  051%=      5-min Rain = 0
KTAS 140509Z 18012KT 25/14 A2995 RMK A01 T02520144  RH  051%=      5-min Rain = 0
KTAS 140510Z 18012KT 25/14 A2995 RMK A01 T02520144  RH  051%=      5-min Rain = 0
KTAS 140511Z 18011KT 25/14 A2995 RMK A01 T02520144  RH  051%=      5-min Rain = 0
KTAS 140512Z 18013KT 25/14 A2995 RMK A01 T02520144  RH  051%=      5-min Rain = 0
KTAS 140513Z 18011KT 25/14 A2995 RMK A01 T02520144  RH  051%=      5-min Rain = 0
KTAS 140514Z 18012KT 25/14 A2995 RMK A01 T02510144  RH  051%=      5-min Rain = 0
KTAS 140515Z 18011KT 25/14 A2995 RMK A01 T02510144  RH  051%=      5-min Rain = 0
KTAS 140516Z 18012KT 25/14 A2995 RMK A01 T02510144  RH  052%=      5-min Rain = 0
KTAS 140517Z 18010KT 25/14 A2995 RMK A01 T02510144  RH  052%=      5-min Rain = 0
KTAS 140518Z 18011KT 25/14 A2995 RMK A01 T02500144  RH  052%=      5-min Rain = 0
KTAS 140519Z 18011KT 25/14 A2995 RMK A01 T02500144  RH  052%=      5-min Rain = 0
KTAS 140520Z 18013KT 25/14 A2995 RMK A01 T02500144  RH  052%=      5-min Rain = 0
KTAS 140521Z 18011G16KT 25/14 A2995 RMK A01 T02500144  RH  052%=      5-min Rain = 0
KTAS 140522Z 18011KT 25/14 A2995 RMK A01 T02500144  RH  052%=      5-min Rain = 0
KTAS 140523Z 18011KT 25/14 A2995 RMK A01 T02500144  RH  052%=      5-min Rain = 0
KTAS 140524Z 18014KT 25/14 A2995 RMK A01 T02500144  RH  052%=      5-min Rain = 0
KTAS 140525Z 18013KT 25/14 A2995 RMK A01 T02510144  RH  051%=      5-min Rain = 0
KTAS 140526Z 19012KT 25/14 A2995 RMK A01 T02510144  RH  051%=      5-min Rain = 0
KTAS 140527Z 18010KT 25/14 A2995 RMK A01 T02510144  RH  051%=      5-min Rain = 0
KTAS 140528Z 19010KT 25/14 A2995 RMK A01 T02500144  RH  051%=      5-min Rain = 0
KTAS 140529Z 18010KT 25/14 A2995 RMK A01 T02500144  RH  052%=      5-min Rain = 0
KTAS 140530Z 18010KT 25/14 A2995 RMK A01 T02490143  RH  052%=      5-min Rain = 0
KTAS 140531Z 18011KT 25/14 A2995 RMK A01 T02480143  RH  052%=      5-min Rain = 0
KTAS 140532Z 19012KT 25/14 A2995 RMK A01 T02480144  RH  052%=      5-min Rain = 0
KTAS 140533Z 18010KT 25/14 A2995 RMK A01 T02490143  RH  052%=      5-min Rain = 0
KTAS 140534Z 19010KT 25/14 A2995 RMK A01 T02480143  RH  052%=      5-min Rain = 0
KTAS 140535Z 19010KT 25/14 A2995 RMK A01 T02480143  RH  052%=      5-min Rain = 0
KTAS 140536Z 19010KT 25/14 A2995 RMK A01 T02480143  RH  052%=      5-min Rain = 0
KTAS 140537Z 19010KT 25/14 A2995 RMK A01 T02470143  RH  052%=      5-min Rain = 0
KTAS 140538Z 19009KT 25/14 A2995 RMK A01 T02470143  RH  052%=      5-min Rain = 0
KTAS 140539Z 19009KT 25/14 A2995 RMK A01 T02460143  RH  053%=      5-min Rain = 0
KTAS 140540Z 19009KT 25/14 A2995 RMK A01 T02460143  RH  053%=      5-min Rain = 0
KTAS 140541Z 19009KT 25/14 A2995 RMK A01 T02450143  RH  053%=      5-min Rain = 0
KTAS 140542Z 19009KT 25/14 A2995 RMK A01 T02450143  RH  053%=      5-min Rain = 0
KTAS 140543Z 19009KT 24/14 A2995 RMK A01 T02440143  RH  053%=      5-min Rain = 0
KTAS 140544Z 19010KT 24/14 A2995 RMK A01 T02440143  RH  053%=      5-min Rain = 0
KTAS 140545Z 19011KT 24/14 A2995 RMK A01 T02440143  RH  053%=      5-min Rain = 0
KTAS 140546Z 20011KT 25/14 A2995 RMK A01 T02450143  RH  053%=      5-min Rain = 0
KTAS 140547Z 19008KT 25/14 A2995 RMK A01 T02450143  RH  053%=      5-min Rain = 0
KTAS 140548Z 19009KT 25/14 A2995 RMK A01 T02450143  RH  053%=      5-min Rain = 0
KTAS 140549Z 20009KT 24/14 A2995 RMK A01 T02430143  RH  053%=      5-min Rain = 0
KTAS 140550Z 19010KT 24/14 A2995 RMK A01 T02440143  RH  053%=      5-min Rain = 0
KTAS 140551Z 19009KT 24/14 A2995 RMK A01 T02440143  RH  053%=      5-min Rain = 0
KTAS 140552Z 20010KT 24/14 A2995 RMK A01 T02430143  RH  054%=      5-min Rain = 0
KTAS 140553Z 19009KT 24/14 A2995 RMK A01 T02430143  RH  054%=      5-min Rain = 0
KTAS 140554Z 19010G15KT 24/14 A2995 RMK A01 T02420143  RH  054%=      5-min Rain = 0
KTAS 140555Z 20011KT 24/14 A2995 RMK A01 T02430144  RH  054%=      5-min Rain = 0
KTAS 140556Z 19012KT 24/14 A2995 RMK A01 T02440144  RH  054%=      5-min Rain = 0
KTAS 140557Z 19012KT 25/14 A2995 RMK A01 T02450144  RH  053%=      5-min Rain = 0
KTAS 140558Z 19012KT 25/14 A2995 RMK A01 T02450144  RH  053%=      5-min Rain = 0
KTAS 140559Z 20011G16KT 25/14 A2995 RMK A01 T02450144  RH  053%=      5-min Rain = 0
KTAS 140600Z 19009KT 24/14 A2995 RMK A01 T02440144  RH  053%=      5-min Rain = 0
KTAS 140601Z 20011KT 24/14 A2995 RMK A01 T02430144  RH  054%=      5-min Rain = 0
KTAS 140602Z 20011KT 24/14 A2995 RMK A01 T02430144  RH  054%=      5-min Rain = 0
KTAS 140603Z 19010KT 24/14 A2995 RMK A01 T02430144  RH  054%=      5-min Rain = 0
KTAS 140604Z 19009KT 24/14 A2995 RMK A01 T02420144  RH  054%=      5-min Rain = 0
KTAS 140605Z 20008KT 24/14 A2995 RMK A01 T02420144  RH  054%=      5-min Rain = 0
KTAS 140606Z 20010KT 24/14 A2995 RMK A01 T02410144  RH  055%=      5-min Rain = 0
KTAS 140607Z 20010KT 24/14 A2995 RMK A01 T02410144  RH  055%=      5-min Rain = 0
KTAS 140608Z 20009KT 24/14 A2995 RMK A01 T02410144  RH  055%=      5-min Rain = 0
KTAS 140609Z 19010KT 24/14 A2995 RMK A01 T02410144  RH  055%=      5-min Rain = 0
KTAS 140610Z 19010KT 24/15 A2995 RMK A01 T02410145  RH  055%=      5-min Rain = 0
KTAS 140611Z 20010KT 24/15 A2995 RMK A01 T02400145  RH  055%=      5-min Rain = 0
KTAS 140612Z 19010KT 24/15 A2995 RMK A01 T02410145  RH  055%=      5-min Rain = 0
KTAS 140613Z 20010KT 24/15 A2995 RMK A01 T02410145  RH  055%=      5-min Rain = 0
KTAS 140614Z 19011KT 24/15 A2995 RMK A01 T02410145  RH  055%=      5-min Rain = 0
KTAS 140615Z 20011KT 24/15 A2995 RMK A01 T02410146  RH  055%=      5-min Rain = 0
KTAS 140616Z 20011KT 24/15 A2995 RMK A01 T02420146  RH  055%=      5-min Rain = 0
KTAS 140617Z 19012KT 24/15 A2995 RMK A01 T02420146  RH  055%=      5-min Rain = 0
KTAS 140618Z 20012KT 24/15 A2995 RMK A01 T02430146  RH  054%=      5-min Rain = 0
KTAS 140619Z 20011KT 24/15 A2995 RMK A01 T02430146  RH  055%=      5-min Rain = 0
KTAS 140620Z 20010KT 24/15 A2995 RMK A01 T02430146  RH  055%=      5-min Rain = 0
KTAS 140621Z 20009KT 24/15 A2995 RMK A01 T02420145  RH  055%=      5-min Rain = 0
KTAS 140622Z 19010KT 24/15 A2995 RMK A01 T02410145  RH  055%=      5-min Rain = 0
KTAS 140623Z 20011KT 24/15 A2995 RMK A01 T02410146  RH  055%=      5-min Rain = 0
KTAS 140624Z 20011KT 24/15 A2995 RMK A01 T02410146  RH  055%=      5-min Rain = 0
KTAS 140625Z 20012KT 24/15 A2995 RMK A01 T02410146  RH  055%=      5-min Rain = 0
KTAS 140626Z 20011KT 24/15 A2995 RMK A01 T02420146  RH  055%=      5-min Rain = 0
KTAS 140627Z 20010KT 24/15 A2995 RMK A01 T02420146  RH  055%=      5-min Rain = 0
KTAS 140628Z 19008KT 24/15 A2995 RMK A01 T02410146  RH  055%=      5-min Rain = 0
KTAS 140629Z 19009KT 24/15 A2995 RMK A01 T02400146  RH  056%=      5-min Rain = 0
KTAS 140630Z 19010KT 24/15 A2995 RMK A01 T02390146  RH  056%=      5-min Rain = 0
KTAS 140631Z 19009KT 24/15 A2995 RMK A01 T02390146  RH  056%=      5-min Rain = 0
KTAS 140632Z 19010KT 24/15 A2995 RMK A01 T02380146  RH  056%=      5-min Rain = 0
KTAS 140633Z 19009KT 24/15 A2995 RMK A01 T02380146  RH  056%=      5-min Rain = 0
KTAS 140634Z 20010KT 24/15 A2995 RMK A01 T02370146  RH  057%=      5-min Rain = 0
KTAS 140635Z 19011KT 24/15 A2995 RMK A01 T02370146  RH  057%=      5-min Rain = 0
KTAS 140636Z 19011KT 24/15 A2995 RMK A01 T02370146  RH  057%=      5-min Rain = 0
KTAS 140637Z 19010KT 24/15 A2995 RMK A01 T02370146  RH  057%=      5-min Rain = 0
KTAS 140638Z 20011KT 24/15 A2995 RMK A01 T02370146  RH  057%=      5-min Rain = 0
KTAS 140639Z 20010KT 24/15 A2995 RMK A01 T02360146  RH  057%=      5-min Rain = 0
KTAS 140640Z 19010KT 24/15 A2995 RMK A01 T02360146  RH  057%=      5-min Rain = 0
KTAS 140641Z 19010KT 24/15 A2995 RMK A01 T02360146  RH  057%=      5-min Rain = 0
KTAS 140642Z 20008KT 24/15 A2995 RMK A01 T02360147  RH  057%=      5-min Rain = 0
KTAS 140643Z 20009KT 24/15 A2995 RMK A01 T02350147  RH  057%=      5-min Rain = 0
KTAS 140644Z 20009KT 24/15 A2995 RMK A01 T02350147  RH  058%=      5-min Rain = 0
KTAS 140645Z 20009KT 24/15 A2995 RMK A01 T02350147  RH  058%=      5-min Rain = 0
KTAS 140646Z 20009KT 24/15 A2995 RMK A01 T02350147  RH  058%=      5-min Rain = 0
KTAS 140647Z 20009KT 24/15 A2995 RMK A01 T02350147  RH  058%=      5-min Rain = 0
KTAS 140648Z 20010KT 23/15 A2995 RMK A01 T02340147  RH  058%=      5-min Rain = 0
KTAS 140649Z 20010KT 23/15 A2995 RMK A01 T02340148  RH  058%=      5-min Rain = 0
KTAS 140650Z 20008KT 23/15 A2995 RMK A01 T02340147  RH  058%=      5-min Rain = 0
KTAS 140651Z 20008KT 23/15 A2995 RMK A01 T02330147  RH  058%=      5-min Rain = 0
KTAS 140652Z 20009KT 23/15 A2995 RMK A01 T02330147  RH  059%=      5-min Rain = 0
KTAS 140653Z 19009KT 23/15 A2995 RMK A01 T02330147  RH  059%=      5-min Rain = 0
KTAS 140654Z 20010KT 23/15 A2995 RMK A01 T02330147  RH  059%=      5-min Rain = 0
KTAS 140655Z 20009KT 23/15 A2995 RMK A01 T02330148  RH  059%=      5-min Rain = 0
KTAS 140656Z 20008KT 23/15 A2995 RMK A01 T02330148  RH  059%=      5-min Rain = 0
KTAS 140657Z 20009KT 23/15 A2995 RMK A01 T02320148  RH  059%=      5-min Rain = 0
KTAS 140658Z 20008KT 23/15 A2995 RMK A01 T02320147  RH  059%=      5-min Rain = 0
KTAS 140659Z 19008KT 23/15 A2995 RMK A01 T02310147  RH  059%=      5-min Rain = 0
KTAS 140700Z 19010KT 23/15 A2995 RMK A01 T02310147  RH  059%=      5-min Rain = 0
KTAS 140701Z 19007KT 23/15 A2995 RMK A01 T02310148  RH  059%=      5-min Rain = 0
KTAS 140702Z 20008KT 23/15 A2995 RMK A01 T02300147  RH  059%=      5-min Rain = 0
KTAS 140703Z 20009KT 23/15 A2995 RMK A01 T02300147  RH  060%=      5-min Rain = 0
KTAS 140704Z 19008KT 23/15 A2995 RMK A01 T02300148  RH  060%=      5-min Rain = 0
KTAS 140705Z 19009KT 23/15 A2995 RMK A01 T02300148  RH  060%=      5-min Rain = 0
KTAS 140706Z 19008KT 23/15 A2995 RMK A01 T02290147  RH  060%=      5-min Rain = 0
KTAS 140707Z 19008KT 23/15 A2995 RMK A01 T02290147  RH  060%=      5-min Rain = 0
KTAS 140708Z 19008KT 23/15 A2995 RMK A01 T02280147  RH  060%=      5-min Rain = 0
KTAS 140709Z 19008KT 23/15 A2995 RMK A01 T02270147  RH  061%=      5-min Rain = 0
KTAS 140710Z 19008KT 23/15 A2995 RMK A01 T02270147  RH  061%=      5-min Rain = 0
KTAS 140711Z 19008KT 23/15 A2995 RMK A01 T02270147  RH  061%=      5-min Rain = 0
KTAS 140712Z 19008KT 23/15 A2995 RMK A01 T02260147  RH  061%=      5-min Rain = 0
KTAS 140713Z 19007KT 23/15 A2995 RMK A01 T02260147  RH  061%=      5-min Rain = 0
KTAS 140714Z 20009KT 23/15 A2995 RMK A01 T02260147  RH  061%=      5-min Rain = 0
KTAS 140715Z 19009KT 23/15 A2995 RMK A01 T02250147  RH  061%=      5-min Rain = 0
KTAS 140716Z 19007KT 23/15 A2995 RMK A01 T02260147  RH  061%=      5-min Rain = 0
KTAS 140717Z 20008KT 23/15 A2995 RMK A01 T02250147  RH  061%=      5-min Rain = 0
KTAS 140718Z 19008KT 23/15 A2995 RMK A01 T02250147  RH  061%=      5-min Rain = 0
KTAS 140719Z 20008KT 23/15 A2995 RMK A01 T02250147  RH  061%=      5-min Rain = 0
KTAS 140720Z 19008KT 23/15 A2995 RMK A01 T02250148  RH  062%=      5-min Rain = 0
KTAS 140721Z 20008KT 23/15 A2995 RMK A01 T02250148  RH  062%=      5-min Rain = 0
KTAS 140722Z 19008KT 23/15 A2995 RMK A01 T02250148  RH  061%=      5-min Rain = 0
KTAS 140723Z 19008KT 23/15 A2995 RMK A01 T02250148  RH  062%=      5-min Rain = 0
KTAS 140724Z 19008KT 23/15 A2995 RMK A01 T02250148  RH  062%=      5-min Rain = 0
KTAS 140725Z 19008KT 22/15 A2995 RMK A01 T02240148  RH  062%=      5-min Rain = 0
KTAS 140726Z 19008KT 22/15 A2995 RMK A01 T02240148  RH  062%=      5-min Rain = 0
KTAS 140727Z 18008KT 22/15 A2995 RMK A01 T02240148  RH  062%=      5-min Rain = 0
KTAS 140728Z 18008KT 22/15 A2995 RMK A01 T02230148  RH  062%=      5-min Rain = 0
KTAS 140729Z 19008KT 22/15 A2995 RMK A01 T02230148  RH  063%=      5-min Rain = 0
KTAS 140730Z 19008KT 22/15 A2995 RMK A01 T02230148  RH  063%=      5-min Rain = 0
KTAS 140731Z 19007KT 22/15 A2994 RMK A01 T02230148  RH  063%=      5-min Rain = 0
KTAS 140732Z 19007KT 22/15 A2994 RMK A01 T02220148  RH  063%=      5-min Rain = 0
KTAS 140733Z 19007KT 22/15 A2994 RMK A01 T02220148  RH  063%=      5-min Rain = 0
KTAS 140734Z 18007KT 22/15 A2994 RMK A01 T02210148  RH  063%=      5-min Rain = 0
KTAS 140735Z 19008KT 22/15 A2994 RMK A01 T02210148  RH  063%=      5-min Rain = 0
KTAS 140736Z 19008KT 22/15 A2994 RMK A01 T02200148  RH  063%=      5-min Rain = 0
KTAS 140737Z 19007KT 22/15 A2994 RMK A01 T02200148  RH  064%=      5-min Rain = 0
KTAS 140738Z 19007KT 22/15 A2994 RMK A01 T02210148  RH  064%=      5-min Rain = 0
KTAS 140739Z 19008KT 22/15 A2994 RMK A01 T02210148  RH  063%=      5-min Rain = 0
KTAS 140740Z 19007KT 22/15 A2994 RMK A01 T02200148  RH  064%=      5-min Rain = 0
KTAS 140741Z 19007KT 22/15 A2994 RMK A01 T02210148  RH  064%=      5-min Rain = 0
KTAS 140742Z 20009KT 22/15 A2994 RMK A01 T02210149  RH  064%=      5-min Rain = 0
KTAS 140743Z 19007KT 22/15 A2994 RMK A01 T02220149  RH  063%=      5-min Rain = 0
KTAS 140744Z 19007KT 22/15 A2994 RMK A01 T02220149  RH  063%=      5-min Rain = 0
KTAS 140745Z 19006KT 22/15 A2994 RMK A01 T02210148  RH  063%=      5-min Rain = 0
KTAS 140746Z 19007KT 22/15 A2994 RMK A01 T02210149  RH  063%=      5-min Rain = 0
KTAS 140747Z 19007KT 22/15 A2994 RMK A01 T02210149  RH  063%=      5-min Rain = 0
KTAS 140748Z 19008KT 22/15 A2994 RMK A01 T02210149  RH  064%=      5-min Rain = 0
KTAS 140749Z 20009G14KT 22/15 A2994 RMK A01 T02220150  RH  064%=      5-min Rain = 0
KTAS 140750Z 20007KT 22/15 A2994 RMK A01 T02240150  RH  063%=      5-min Rain = 0
KTAS 140751Z 20008KT 22/15 A2994 RMK A01 T02240150  RH  063%=      5-min Rain = 0
KTAS 140752Z 19009KT 22/15 A2994 RMK A01 T02240150  RH  063%=      5-min Rain = 0
KTAS 140753Z 19008KT 23/15 A2994 RMK A01 T02250150  RH  063%=      5-min Rain = 0
KTAS 140754Z 19008KT 23/15 A2994 RMK A01 T02250150  RH  062%=      5-min Rain = 0
KTAS 140755Z 19008KT 23/15 A2994 RMK A01 T02250150  RH  062%=      5-min Rain = 0
KTAS 140756Z 19009KT 22/15 A2994 RMK A01 T02240150  RH  063%=      5-min Rain = 0
KTAS 140757Z 19008KT 22/15 A2994 RMK A01 T02240150  RH  063%=      5-min Rain = 0
KTAS 140758Z 19008KT 22/15 A2994 RMK A01 T02240150  RH  063%=      5-min Rain = 0
KTAS 140759Z 18007KT 22/15 A2994 RMK A01 T02240150  RH  063%=      5-min Rain = 0
KTAS 140800Z 18007KT 22/15 A2994 RMK A01 T02230149  RH  063%=      5-min Rain = 0
KTAS 140801Z 18006KT 22/15 A2994 RMK A01 T02230149  RH  063%=      5-min Rain = 0
KTAS 140802Z 18007KT 22/15 A2994 RMK A01 T02220149  RH  063%=      5-min Rain = 0
KTAS 140803Z 18008KT 22/15 A2994 RMK A01 T02220149  RH  064%=      5-min Rain = 0
KTAS 140804Z 18007KT 22/15 A2994 RMK A01 T02210149  RH  064%=      5-min Rain = 0
KTAS 140805Z 18007KT 22/15 A2994 RMK A01 T02210149  RH  064%=      5-min Rain = 0
KTAS 140806Z 18007KT 22/15 A2994 RMK A01 T02200149  RH  064%=      5-min Rain = 0
KTAS 140807Z 18007KT 22/15 A2994 RMK A01 T02200149  RH  064%=      5-min Rain = 0
KTAS 140808Z 17007KT 22/15 A2994 RMK A01 T02190149  RH  064%=      5-min Rain = 0
KTAS 140809Z 17006KT 22/15 A2994 RMK A01 T02180149  RH  065%=      5-min Rain = 0
KTAS 140810Z 17006KT 22/15 A2994 RMK A01 T02170148  RH  065%=      5-min Rain = 0
KTAS 140811Z 17007KT 22/15 A2994 RMK A01 T02160148  RH  065%=      5-min Rain = 0
KTAS 140812Z 17006KT 22/15 A2994 RMK A01 T02150147  RH  065%=      5-min Rain = 0
KTAS 140813Z 17006KT 21/15 A2994 RMK A01 T02140147  RH  065%=      5-min Rain = 0
KTAS 140814Z 17006KT 21/15 A2994 RMK A01 T02140147  RH  066%=      5-min Rain = 0
KTAS 140815Z 17007KT 21/15 A2994 RMK A01 T02130146  RH  066%=      5-min Rain = 0
KTAS 140816Z 17007KT 21/15 A2994 RMK A01 T02120146  RH  066%=      5-min Rain = 0
KTAS 140817Z 18007KT 21/15 A2994 RMK A01 T02120146  RH  066%=      5-min Rain = 0
KTAS 140818Z 18007KT 21/15 A2994 RMK A01 T02110146  RH  066%=      5-min Rain = 0
KTAS 140819Z 18007KT 21/15 A2994 RMK A01 T02110146  RH  066%=      5-min Rain = 0
KTAS 140820Z 18007KT 21/15 A2993 RMK A01 T02100146  RH  067%=      5-min Rain = 0
KTAS 140821Z 18006KT 21/15 A2993 RMK A01 T02100146  RH  067%=      5-min Rain = 0
KTAS 140822Z 18007KT 21/15 A2993 RMK A01 T02100146  RH  067%=      5-min Rain = 0
KTAS 140823Z 18007KT 21/15 A2993 RMK A01 T02090146  RH  067%=      5-min Rain = 0
KTAS 140824Z 18006KT 21/15 A2993 RMK A01 T02090146  RH  067%=      5-min Rain = 0
KTAS 140825Z 18006KT 21/15 A2994 RMK A01 T02080146  RH  067%=      5-min Rain = 0
KTAS 140826Z 18006KT 21/15 A2994 RMK A01 T02080146  RH  067%=      5-min Rain = 0
KTAS 140827Z 18006KT 21/15 A2994 RMK A01 T02070145  RH  068%=      5-min Rain = 0
KTAS 140828Z 18006KT 21/15 A2994 RMK A01 T02070145  RH  068%=      5-min Rain = 0
KTAS 140829Z 17005KT 21/15 A2994 RMK A01 T02060145  RH  068%=      5-min Rain = 0
KTAS 140830Z 17005KT 21/15 A2994 RMK A01 T02050145  RH  068%=      5-min Rain = 0
KTAS 140831Z 17005KT 21/15 A2994 RMK A01 T02050145  RH  069%=      5-min Rain = 0
KTAS 140832Z 17005KT 21/15 A2994 RMK A01 T02050145  RH  069%=      5-min Rain = 0
KTAS 140833Z 17005KT 21/15 A2994 RMK A01 T02050145  RH  069%=      5-min Rain = 0
KTAS 140834Z 17005KT 20/15 A2994 RMK A01 T02040145  RH  069%=      5-min Rain = 0
KTAS 140835Z 17005KT 20/15 A2994 RMK A01 T02040145  RH  069%=      5-min Rain = 0
KTAS 140836Z 17005KT 20/15 A2994 RMK A01 T02040145  RH  069%=      5-min Rain = 0
KTAS 140837Z 17005KT 20/15 A2994 RMK A01 T02040145  RH  069%=      5-min Rain = 0
KTAS 140838Z 17005KT 20/14 A2994 RMK A01 T02040144  RH  069%=      5-min Rain = 0
KTAS 140839Z 17005KT 20/14 A2994 RMK A01 T02040144  RH  069%=      5-min Rain = 0
KTAS 140840Z 17006KT 20/14 A2994 RMK A01 T02030144  RH  069%=      5-min Rain = 0
KTAS 140841Z 17005KT 20/14 A2994 RMK A01 T02030144  RH  069%=      5-min Rain = 0
KTAS 140842Z 17005KT 20/15 A2994 RMK A01 T02030145  RH  069%=      5-min Rain = 0
KTAS 140843Z 17005KT 20/15 A2994 RMK A01 T02030145  RH  069%=      5-min Rain = 0
KTAS 140844Z 17005KT 20/15 A2994 RMK A01 T02030145  RH  069%=      5-min Rain = 0
KTAS 140845Z 17004KT 20/14 A2994 RMK A01 T02030144  RH  069%=      5-min Rain = 0
KTAS 140846Z 17005KT 20/14 A2994 RMK A01 T02020144  RH  069%=      5-min Rain = 0
KTAS 140847Z 16006KT 20/14 A2994 RMK A01 T02020144  RH  069%=      5-min Rain = 0
KTAS 140848Z 16006KT 20/14 A2994 RMK A01 T02020144  RH  069%=      5-min Rain = 0
KTAS 140849Z 16006KT 20/14 A2994 RMK A01 T02010144  RH  070%=      5-min Rain = 0
KTAS 140850Z 16006KT 20/14 A2994 RMK A01 T02010144  RH  070%=      5-min Rain = 0
KTAS 140851Z 16006KT 20/14 A2995 RMK A01 T02010144  RH  070%=      5-min Rain = 0
KTAS 140852Z 16005KT 20/14 A2995 RMK A01 T02010143  RH  070%=      5-min Rain = 0
KTAS 140853Z 16006KT 20/14 A2995 RMK A01 T02000143  RH  070%=      5-min Rain = 0
KTAS 140854Z 16005KT 20/14 A2995 RMK A01 T02000144  RH  070%=      5-min Rain = 0
KTAS 140855Z 16006KT 20/14 A2995 RMK A01 T02000144  RH  070%=      5-min Rain = 0
KTAS 140856Z 16006KT 20/14 A2995 RMK A01 T02000143  RH  070%=      5-min Rain = 0
KTAS 140857Z 16006KT 20/14 A2995 RMK A01 T02010143  RH  070%=      5-min Rain = 0
KTAS 140858Z 16006KT 20/14 A2995 RMK A01 T02010143  RH  069%=      5-min Rain = 0
KTAS 140859Z 16006KT 20/14 A2995 RMK A01 T02010143  RH  069%=      5-min Rain = 0
KTAS 140900Z 16006KT 20/14 A2995 RMK A01 T02010143  RH  069%=      5-min Rain = 0
KTAS 140901Z 16007KT 20/14 A2995 RMK A01 T02010143  RH  069%=      5-min Rain = 0
KTAS 140902Z 16006KT 20/14 A2995 RMK A01 T02010143  RH  069%=      5-min Rain = 0
KTAS 140903Z 16006KT 20/14 A2995 RMK A01 T02010144  RH  070%=      5-min Rain = 0
KTAS 140904Z 17006KT 20/14 A2995 RMK A01 T02010144  RH  070%=      5-min Rain = 0
KTAS 140905Z 17006KT 20/14 A2995 RMK A01 T02010144  RH  070%=      5-min Rain = 0
KTAS 140906Z 17006KT 20/15 A2995 RMK A01 T02020145  RH  070%=      5-min Rain = 0
KTAS 140907Z 16006KT 20/15 A2995 RMK A01 T02020145  RH  070%=      5-min Rain = 0
KTAS 140908Z 17007KT 20/15 A2995 RMK A01 T02020145  RH  070%=      5-min Rain = 0
KTAS 140909Z 16006KT 20/15 A2995 RMK A01 T02030146  RH  070%=      5-min Rain = 0
KTAS 140910Z 17006KT 20/15 A2995 RMK A01 T02030146  RH  070%=      5-min Rain = 0
KTAS 140911Z 17006KT 20/15 A2995 RMK A01 T02030146  RH  070%=      5-min Rain = 0
KTAS 140912Z 17005KT 20/15 A2995 RMK A01 T02030146  RH  070%=      5-min Rain = 0
KTAS 140913Z 17005KT 20/15 A2995 RMK A01 T02030146  RH  070%=      5-min Rain = 0
KTAS 140914Z 17005KT 20/15 A2995 RMK A01 T02030146  RH  070%=      5-min Rain = 0
KTAS 140915Z 16006KT 20/15 A2995 RMK A01 T02030146  RH  070%=      5-min Rain = 0
KTAS 140916Z 16005KT 20/15 A2995 RMK A01 T02030147  RH  070%=      5-min Rain = 0
KTAS 140917Z 16006KT 20/15 A2995 RMK A01 T02030147  RH  070%=      5-min Rain = 0
KTAS 140918Z 16006KT 20/15 A2995 RMK A01 T02030147  RH  070%=      5-min Rain = 0
KTAS 140919Z 16006KT 20/15 A2995 RMK A01 T02030147  RH  070%=      5-min Rain = 0
KTAS 140920Z 16006KT 20/15 A2995 RMK A01 T02030147  RH  070%=      5-min Rain = 0
KTAS 140921Z 16006KT 20/15 A2995 RMK A01 T02030147  RH  070%=      5-min Rain = 0
KTAS 140922Z 17006KT 20/15 A2995 RMK A01 T02030148  RH  071%=      5-min Rain = 0
KTAS 140923Z 17006KT 20/15 A2995 RMK A01 T02030149  RH  071%=      5-min Rain = 0
KTAS 140924Z 17006KT 20/15 A2995 RMK A01 T02040149  RH  071%=      5-min Rain = 0
KTAS 140925Z 17006KT 20/15 A2995 RMK A01 T02040149  RH  071%=      5-min Rain = 0
KTAS 140926Z 17006KT 21/15 A2995 RMK A01 T02050150  RH  071%=      5-min Rain = 0
KTAS 140927Z 16006KT 21/15 A2995 RMK A01 T02050150  RH  071%=      5-min Rain = 0
KTAS 140928Z 16006KT 21/15 A2995 RMK A01 T02050150  RH  071%=      5-min Rain = 0
KTAS 140929Z 16007KT 21/15 A2995 RMK A01 T02050150  RH  071%=      5-min Rain = 0
KTAS 140930Z 16006KT 21/15 A2995 RMK A01 T02060151  RH  071%=      5-min Rain = 0
KTAS 140931Z 17006KT 21/15 A2995 RMK A01 T02060151  RH  071%=      5-min Rain = 0
KTAS 140932Z 17006KT 21/15 A2995 RMK A01 T02060151  RH  071%=      5-min Rain = 0
KTAS 140933Z 17006KT 21/15 A2995 RMK A01 T02060151  RH  071%=      5-min Rain = 0
KTAS 140934Z 17006KT 21/15 A2995 RMK A01 T02060151  RH  071%=      5-min Rain = 0
KTAS 140935Z 18006KT 21/15 A2995 RMK A01 T02060151  RH  071%=      5-min Rain = 0
KTAS 140936Z 18006KT 21/15 A2995 RMK A01 T02050151  RH  071%=      5-min Rain = 0
KTAS 140937Z 18006KT 21/15 A2995 RMK A01 T02050151  RH  071%=      5-min Rain = 0
KTAS 140938Z 18006KT 21/15 A2995 RMK A01 T02050151  RH  071%=      5-min Rain = 0
KTAS 140939Z 18005KT 20/15 A2995 RMK A01 T02040151  RH  071%=      5-min Rain = 0
KTAS 140940Z 19006KT 20/15 A2995 RMK A01 T02040151  RH  071%=      5-min Rain = 0
KTAS 140941Z 19006KT 20/15 A2995 RMK A01 T02040151  RH  071%=      5-min Rain = 0
KTAS 140942Z 19006KT 20/15 A2995 RMK A01 T02030150  RH  072%=      5-min Rain = 0
KTAS 140943Z 19006KT 20/15 A2995 RMK A01 T02020150  RH  072%=      5-min Rain = 0
KTAS 140944Z 20006KT 20/15 A2995 RMK A01 T02010150  RH  072%=      5-min Rain = 0
KTAS 140945Z 20006KT 20/15 A2995 RMK A01 T02000149  RH  072%=      5-min Rain = 0
KTAS 140946Z 20007KT 20/15 A2995 RMK A01 T02000150  RH  073%=      5-min Rain = 0
KTAS 140947Z 19007KT 20/15 A2995 RMK A01 T02010151  RH  073%=      5-min Rain = 0
KTAS 140948Z 19007KT 20/15 A2995 RMK A01 T02020151  RH  073%=      5-min Rain = 0
KTAS 140949Z 19007KT 20/15 A2995 RMK A01 T02020151  RH  073%=      5-min Rain = 0
KTAS 140950Z 19007KT 20/15 A2995 RMK A01 T02020151  RH  073%=      5-min Rain = 0
KTAS 140951Z 19007KT 20/15 A2995 RMK A01 T02020152  RH  073%=      5-min Rain = 0
KTAS 140952Z 18007KT 20/15 A2995 RMK A01 T02030152  RH  073%=      5-min Rain = 0
KTAS 140953Z 18007KT 20/15 A2995 RMK A01 T02030152  RH  073%=      5-min Rain = 0
KTAS 140954Z 18007KT 20/15 A2995 RMK A01 T02030152  RH  073%=      5-min Rain = 0
KTAS 140955Z 18007KT 20/15 A2995 RMK A01 T02030153  RH  073%=      5-min Rain = 0
KTAS 140956Z 18007KT 20/15 A2995 RMK A01 T02040153  RH  072%=      5-min Rain = 0
KTAS 140957Z 18007KT 20/15 A2995 RMK A01 T02040153  RH  072%=      5-min Rain = 0
KTAS 140958Z 18007KT 21/15 A2995 RMK A01 T02050153  RH  072%=      5-min Rain = 0
KTAS 140959Z 19007KT 21/15 A2995 RMK A01 T02050153  RH  072%=      5-min Rain = 0
KTAS 141000Z 19007KT 21/15 A2995 RMK A01 T02050153  RH  072%=      5-min Rain = 0
KTAS 141001Z 19007KT 21/15 A2995 RMK A01 T02060154  RH  072%=      5-min Rain = 0
KTAS 141002Z 19007KT 21/15 A2995 RMK A01 T02060154  RH  072%=      5-min Rain = 0
KTAS 141003Z 19008KT 21/15 A2995 RMK A01 T02060154  RH  072%=      5-min Rain = 0
KTAS 141004Z 19007KT 21/15 A2995 RMK A01 T02070154  RH  072%=      5-min Rain = 0
KTAS 141005Z 19007KT 21/15 A2995 RMK A01 T02070154  RH  072%=      5-min Rain = 0
KTAS 141006Z 19008KT 21/15 A2995 RMK A01 T02080154  RH  072%=      5-min Rain = 0
KTAS 141007Z 19008KT 21/16 A2995 RMK A01 T02080155  RH  072%=      5-min Rain = 0
KTAS 141008Z 18008KT 21/16 A2995 RMK A01 T02080155  RH  072%=      5-min Rain = 0
KTAS 141009Z 18008KT 21/16 A2995 RMK A01 T02080155  RH  071%=      5-min Rain = 0
KTAS 141010Z 18008KT 21/16 A2995 RMK A01 T02090155  RH  071%=      5-min Rain = 0
KTAS 141011Z 18008KT 21/16 A2995 RMK A01 T02090155  RH  071%=      5-min Rain = 0
KTAS 141012Z 18009KT 21/16 A2995 RMK A01 T02090155  RH  071%=      5-min Rain = 0
KTAS 141013Z 18008KT 21/16 A2995 RMK A01 T02090155  RH  071%=      5-min Rain = 0
KTAS 141014Z 18008KT 21/16 A2995 RMK A01 T02100156  RH  071%=      5-min Rain = 0
KTAS 141015Z 18008KT 21/16 A2995 RMK A01 T02100156  RH  071%=      5-min Rain = 0
KTAS 141016Z 18008KT 21/16 A2995 RMK A01 T02100156  RH  071%=      5-min Rain = 0
KTAS 141017Z 18008KT 21/16 A2995 RMK A01 T02100156  RH  071%=      5-min Rain = 0
KTAS 141018Z 18007KT 21/16 A2995 RMK A01 T02110155  RH  071%=      5-min Rain = 0
KTAS 141019Z 18007KT 21/16 A2995 RMK A01 T02100155  RH  071%=      5-min Rain = 0
KTAS 141020Z 18009KT 21/16 A2995 RMK A01 T02100156  RH  071%=      5-min Rain = 0
KTAS 141021Z 18007KT 21/16 A2995 RMK A01 T02110155  RH  071%=      5-min Rain = 0
KTAS 141022Z 18008KT 21/16 A2995 RMK A01 T02100155  RH  071%=      5-min Rain = 0
KTAS 141023Z 18007KT 21/16 A2995 RMK A01 T02100155  RH  071%=      5-min Rain = 0
KTAS 141024Z 18007KT 21/15 A2995 RMK A01 T02090154  RH  071%=      5-min Rain = 0
KTAS 141025Z 18007KT 21/15 A2995 RMK A01 T02090154  RH  071%=      5-min Rain = 0
KTAS 141026Z 18007KT 21/15 A2995 RMK A01 T02090154  RH  071%=      5-min Rain = 0
KTAS 141027Z 18006KT 21/15 A2995 RMK A01 T02080154  RH  071%=      5-min Rain = 0
KTAS 141028Z 18007KT 21/15 A2995 RMK A01 T02080154  RH  071%=      5-min Rain = 0
KTAS 141029Z 18006KT 21/15 A2995 RMK A01 T02080154  RH  071%=      5-min Rain = 0
KTAS 141030Z 18007KT 21/15 A2995 RMK A01 T02070154  RH  071%=      5-min Rain = 0
KTAS 141031Z 17006KT 21/15 A2995 RMK A01 T02070154  RH  071%=      5-min Rain = 0
KTAS 141032Z 17006KT 21/15 A2995 RMK A01 T02070153  RH  071%=      5-min Rain = 0
KTAS 141033Z 17005KT 21/15 A2995 RMK A01 T02060153  RH  072%=      5-min Rain = 0
KTAS 141034Z 17005KT 21/15 A2995 RMK A01 T02060153  RH  072%=      5-min Rain = 0
KTAS 141035Z 17005KT 21/15 A2995 RMK A01 T02050153  RH  072%=      5-min Rain = 0
KTAS 141036Z 17004KT 21/15 A2995 RMK A01 T02050153  RH  072%=      5-min Rain = 0
KTAS 141037Z 17005KT 21/15 A2995 RMK A01 T02050153  RH  072%=      5-min Rain = 0
KTAS 141038Z 16004KT 20/15 A2995 RMK A01 T02040153  RH  072%=      5-min Rain = 0
KTAS 141039Z 17006KT 20/15 A2995 RMK A01 T02040152  RH  072%=      5-min Rain = 0
KTAS 141040Z 16005KT 20/15 A2995 RMK A01 T02040153  RH  072%=      5-min Rain = 0
KTAS 141041Z 17006KT 20/15 A2995 RMK A01 T02040153  RH  073%=      5-min Rain = 0
KTAS 141042Z 16006KT 20/15 A2995 RMK A01 T02030153  RH  073%=      5-min Rain = 0
KTAS 141043Z 16006KT 20/15 A2995 RMK A01 T02030153  RH  073%=      5-min Rain = 0
KTAS 141044Z 16006KT 20/15 A2995 RMK A01 T02030153  RH  073%=      5-min Rain = 0
KTAS 141045Z 16006KT 20/15 A2995 RMK A01 T02030153  RH  073%=      5-min Rain = 0
KTAS 141046Z 16005KT 20/15 A2995 RMK A01 T02020153  RH  073%=      5-min Rain = 0
KTAS 141047Z 16006KT 20/15 A2995 RMK A01 T02020153  RH  073%=      5-min Rain = 0
KTAS 141048Z 16007KT 20/15 A2995 RMK A01 T02020153  RH  073%=      5-min Rain = 0
KTAS 141049Z 16006KT 20/15 A2995 RMK A01 T02010153  RH  074%=      5-min Rain = 0
KTAS 141050Z 16006KT 20/15 A2995 RMK A01 T02010153  RH  074%=      5-min Rain = 0
KTAS 141051Z 16006KT 20/15 A2995 RMK A01 T02010152  RH  074%=      5-min Rain = 0
KTAS 141052Z 16006KT 20/15 A2995 RMK A01 T02000152  RH  074%=      5-min Rain = 0
KTAS 141053Z 15007KT 20/15 A2995 RMK A01 T02000152  RH  074%=      5-min Rain = 0
KTAS 141054Z 15006KT 20/15 A2995 RMK A01 T01990152  RH  074%=      5-min Rain = 0
KTAS 141055Z 16006KT 20/15 A2995 RMK A01 T01990152  RH  074%=      5-min Rain = 0
KTAS 141056Z 16006KT 20/15 A2995 RMK A01 T01990152  RH  074%=      5-min Rain = 0
KTAS 141057Z 16007KT 20/15 A2995 RMK A01 T01990151  RH  074%=      5-min Rain = 0
KTAS 141058Z 16006KT 20/15 A2995 RMK A01 T01990151  RH  074%=      5-min Rain = 0
KTAS 141059Z 16006KT 20/15 A2995 RMK A01 T01990151  RH  074%=      5-min Rain = 0
KTAS 141100Z 16006KT 20/15 A2995 RMK A01 T01980151  RH  074%=      5-min Rain = 0
KTAS 141101Z 16006KT 20/15 A2995 RMK A01 T01980151  RH  074%=      5-min Rain = 0
KTAS 141102Z 16006KT 20/15 A2995 RMK A01 T01980152  RH  075%=      5-min Rain = 0
KTAS 141103Z 16007KT 20/15 A2995 RMK A01 T01980152  RH  075%=      5-min Rain = 0
KTAS 141104Z 16006KT 20/15 A2995 RMK A01 T01990152  RH  075%=      5-min Rain = 0
KTAS 141105Z 16006KT 20/15 A2995 RMK A01 T01990152  RH  074%=      5-min Rain = 0
KTAS 141106Z 16006KT 20/15 A2995 RMK A01 T01990152  RH  075%=      5-min Rain = 0
KTAS 141107Z 16006KT 20/15 A2995 RMK A01 T01990153  RH  075%=      5-min Rain = 0
KTAS 141108Z 17006KT 20/15 A2996 RMK A01 T01990153  RH  075%=      5-min Rain = 0
KTAS 141109Z 17006KT 20/15 A2996 RMK A01 T01990153  RH  075%=      5-min Rain = 0
KTAS 141110Z 17007KT 20/15 A2996 RMK A01 T01990153  RH  075%=      5-min Rain = 0
KTAS 141111Z 17007KT 20/15 A2996 RMK A01 T01980153  RH  075%=      5-min Rain = 0
KTAS 141112Z 17006KT 20/15 A2996 RMK A01 T01980153  RH  075%=      5-min Rain = 0
KTAS 141113Z 17007KT 20/15 A2996 RMK A01 T01980153  RH  075%=      5-min Rain = 0
KTAS 141114Z 17006KT 20/15 A2996 RMK A01 T01980153  RH  075%=      5-min Rain = 0
KTAS 141115Z 17006KT 20/15 A2996 RMK A01 T01980153  RH  075%=      5-min Rain = 0
KTAS 141116Z 16007KT 20/15 A2996 RMK A01 T01980153  RH  075%=      5-min Rain = 0
KTAS 141117Z 17006KT 20/15 A2996 RMK A01 T01980153  RH  076%=      5-min Rain = 0
KTAS 141118Z 17006KT 20/15 A2996 RMK A01 T01980153  RH  076%=      5-min Rain = 0
KTAS 141119Z 17007KT 20/15 A2996 RMK A01 T01970154  RH  076%=      5-min Rain = 0
KTAS 141120Z 17007KT 20/15 A2996 RMK A01 T01980154  RH  076%=      5-min Rain = 0
KTAS 141121Z 17006KT 20/16 A2996 RMK A01 T01980155  RH  076%=      5-min Rain = 0
KTAS 141122Z 17007KT 20/16 A2996 RMK A01 T01980155  RH  076%=      5-min Rain = 0
KTAS 141123Z 16007KT 20/16 A2996 RMK A01 T01980155  RH  076%=      5-min Rain = 0
KTAS 141124Z 16006KT 20/16 A2996 RMK A01 T01980155  RH  076%=      5-min Rain = 0
KTAS 141125Z 16006KT 20/16 A2996 RMK A01 T01980155  RH  076%=      5-min Rain = 0
KTAS 141126Z 16006KT 20/15 A2996 RMK A01 T01970154  RH  076%=      5-min Rain = 0
KTAS 141127Z 16006KT 20/15 A2996 RMK A01 T01970154  RH  076%=      5-min Rain = 0
KTAS 141128Z 15006KT 20/15 A2996 RMK A01 T01970154  RH  076%=      5-min Rain = 0
KTAS 141129Z 15006KT 20/15 A2996 RMK A01 T01960154  RH  076%=      5-min Rain = 0
KTAS 141130Z 15006KT 20/15 A2996 RMK A01 T01950153  RH  076%=      5-min Rain = 0
KTAS 141131Z 16006KT 20/15 A2996 RMK A01 T01950153  RH  077%=      5-min Rain = 0
KTAS 141132Z 16006KT 19/15 A2996 RMK A01 T01940153  RH  077%=      5-min Rain = 0
KTAS 141133Z 16007KT 19/15 A2996 RMK A01 T01940152  RH  077%=      5-min Rain = 0
KTAS 141134Z 16007KT 19/15 A2996 RMK A01 T01940152  RH  077%=      5-min Rain = 0
KTAS 141135Z 16007KT 19/15 A2996 RMK A01 T01930153  RH  077%=      5-min Rain = 0
KTAS 141136Z 16007KT 19/15 A2996 RMK A01 T01940153  RH  077%=      5-min Rain = 0
KTAS 141137Z 16006KT 19/15 A2996 RMK A01 T01940153  RH  077%=      5-min Rain = 0
KTAS 141138Z 16006KT 19/15 A2996 RMK A01 T01940153  RH  077%=      5-min Rain = 0
KTAS 141139Z 16006KT 19/15 A2996 RMK A01 T01940153  RH  077%=      5-min Rain = 0
KTAS 141140Z 16006KT 19/15 A2996 RMK A01 T01940153  RH  077%=      5-min Rain = 0
KTAS 141141Z 16006KT 19/15 A2996 RMK A01 T01940153  RH  077%=      5-min Rain = 0
KTAS 141142Z 16006KT 19/15 A2996 RMK A01 T01940153  RH  078%=      5-min Rain = 0
KTAS 141143Z 16006KT 19/15 A2996 RMK A01 T01930153  RH  078%=      5-min Rain = 0
KTAS 141144Z 16006KT 19/15 A2996 RMK A01 T01930153  RH  078%=      5-min Rain = 0
KTAS 141145Z 17007KT 19/15 A2996 RMK A01 T01930154  RH  078%=      5-min Rain = 0
KTAS 141146Z 16007KT 19/15 A2996 RMK A01 T01930154  RH  078%=      5-min Rain = 0
KTAS 141147Z 16006KT 19/15 A2996 RMK A01 T01930154  RH  078%=      5-min Rain = 0
KTAS 141148Z 16007KT 19/15 A2996 RMK A01 T01930154  RH  078%=      5-min Rain = 0
KTAS 141149Z 16006KT 19/15 A2996 RMK A01 T01940154  RH  078%=      5-min Rain = 0
KTAS 141150Z 16006KT 19/15 A2996 RMK A01 T01930154  RH  078%=      5-min Rain = 0
KTAS 141151Z 16007KT 19/15 A2996 RMK A01 T01930154  RH  078%=      5-min Rain = 0
KTAS 141152Z 16006KT 19/15 A2996 RMK A01 T01940154  RH  078%=      5-min Rain = 0
KTAS 141153Z 17005KT 19/15 A2996 RMK A01 T01940154  RH  078%=      5-min Rain = 0
KTAS 141154Z 17006KT 19/15 A2996 RMK A01 T01940154  RH  078%=      5-min Rain = 0
KTAS 141155Z 17006KT 19/15 A2996 RMK A01 T01940154  RH  078%=      5-min Rain = 0
KTAS 141156Z 17006KT 19/15 A2996 RMK A01 T01940154  RH  078%=      5-min Rain = 0
KTAS 141157Z 16006KT 19/15 A2997 RMK A01 T01940154  RH  078%=      5-min Rain = 0
KTAS 141158Z 17006KT 19/16 A2997 RMK A01 T01940155  RH  078%=      5-min Rain = 0
KTAS 141159Z 17006KT 19/16 A2997 RMK A01 T01940155  RH  078%=      5-min Rain = 0
KTAS 141200Z 17006KT 19/16 A2997 RMK A01 T01940155  RH  078%=      5-min Rain = 0
KTAS 141201Z 16006KT 20/16 A2997 RMK A01 T01950155  RH  078%=      5-min Rain = 0
KTAS 141202Z 17006KT 20/16 A2997 RMK A01 T01950156  RH  078%=      5-min Rain = 0
KTAS 141203Z 17006KT 20/16 A2997 RMK A01 T01950156  RH  078%=      5-min Rain = 0
KTAS 141204Z 17006KT 20/16 A2997 RMK A01 T01950156  RH  078%=      5-min Rain = 0
KTAS 141205Z 17007KT 20/16 A2997 RMK A01 T01950156  RH  078%=      5-min Rain = 0
KTAS 141206Z 17007KT 20/16 A2997 RMK A01 T01960157  RH  078%=      5-min Rain = 0
KTAS 141207Z 17007KT 20/16 A2997 RMK A01 T01960157  RH  078%=      5-min Rain = 0
KTAS 141208Z 17007KT 20/16 A2997 RMK A01 T01960156  RH  078%=      5-min Rain = 0
KTAS 141209Z 16006KT 20/16 A2997 RMK A01 T01960157  RH  078%=      5-min Rain = 0
KTAS 141210Z 16007KT 20/16 A2997 RMK A01 T01960157  RH  078%=      5-min Rain = 0
KTAS 141211Z 16007KT 20/16 A2997 RMK A01 T01970157  RH  078%=      5-min Rain = 0
KTAS 141212Z 17007KT 20/16 A2997 RMK A01 T01970157  RH  078%=      5-min Rain = 0
KTAS 141213Z 16006KT 20/16 A2997 RMK A01 T01970157  RH  078%=      5-min Rain = 0
KTAS 141214Z 16007KT 20/16 A2997 RMK A01 T01970157  RH  078%=      5-min Rain = 0
KTAS 141215Z 16007KT 20/16 A2998 RMK A01 T01970157  RH  078%=      5-min Rain = 0
KTAS 141216Z 16007KT 20/16 A2998 RMK A01 T01970157  RH  078%=      5-min Rain = 0
KTAS 141217Z 16007KT 20/16 A2998 RMK A01 T01970157  RH  078%=      5-min Rain = 0
KTAS 141218Z 16006KT 20/16 A2998 RMK A01 T01970157  RH  078%=      5-min Rain = 0
KTAS 141219Z 16006KT 20/16 A2998 RMK A01 T01970157  RH  078%=      5-min Rain = 0
KTAS 141220Z 16006KT 20/16 A2998 RMK A01 T01970157  RH  078%=      5-min Rain = 0
KTAS 141221Z 16006KT 20/16 A2998 RMK A01 T01970157  RH  078%=      5-min Rain = 0
KTAS 141222Z 16006KT 20/16 A2998 RMK A01 T01970157  RH  078%=      5-min Rain = 0
KTAS 141223Z 16006KT 20/16 A2998 RMK A01 T01970158  RH  078%=      5-min Rain = 0
KTAS 141224Z 17006KT 20/16 A2998 RMK A01 T01980158  RH  078%=      5-min Rain = 0
KTAS 141225Z 16006KT 20/16 A2998 RMK A01 T01980158  RH  078%=      5-min Rain = 0
KTAS 141226Z 16006KT 20/16 A2998 RMK A01 T01980158  RH  078%=      5-min Rain = 0
KTAS 141227Z 16006KT 20/16 A2998 RMK A01 T01980158  RH  078%=      5-min Rain = 0
KTAS 141228Z 16006KT 20/16 A2998 RMK A01 T01980158  RH  077%=      5-min Rain = 0
KTAS 141229Z 16006KT 20/16 A2998 RMK A01 T01990158  RH  077%=      5-min Rain = 0
KTAS 141230Z 16006KT 20/16 A2998 RMK A01 T01990158  RH  077%=      5-min Rain = 0
KTAS 141231Z 16007KT 20/16 A2998 RMK A01 T01990158  RH  077%=      5-min Rain = 0
KTAS 141232Z 16007KT 20/16 A2998 RMK A01 T01990158  RH  077%=      5-min Rain = 0
KTAS 141233Z 16006KT 20/16 A2998 RMK A01 T02000159  RH  077%=      5-min Rain = 0
KTAS 141234Z 16006KT 20/16 A2998 RMK A01 T02000159  RH  077%=      5-min Rain = 0
KTAS 141235Z 16005KT 20/16 A2998 RMK A01 T02010159  RH  077%=      5-min Rain = 0
KTAS 141236Z 16005KT 20/16 A2998 RMK A01 T02010159  RH  077%=      5-min Rain = 0
KTAS 141237Z 16006KT 20/16 A2998 RMK A01 T02020160  RH  077%=      5-min Rain = 0
KTAS 141238Z 16005KT 20/16 A2998 RMK A01 T02030160  RH  076%=      5-min Rain = 0
KTAS 141239Z 16005KT 20/16 A2998 RMK A01 T02030160  RH  076%=      5-min Rain = 0
KTAS 141240Z 16005KT 20/16 A2998 RMK A01 T02040160  RH  076%=      5-min Rain = 0
KTAS 141241Z 16005KT 20/16 A2998 RMK A01 T02040160  RH  076%=      5-min Rain = 0
KTAS 141242Z 16005KT 21/16 A2998 RMK A01 T02050160  RH  076%=      5-min Rain = 0
KTAS 141243Z 16006KT 21/16 A2998 RMK A01 T02050160  RH  075%=      5-min Rain = 0
KTAS 141244Z 16006KT 21/16 A2998 RMK A01 T02060160  RH  075%=      5-min Rain = 0
KTAS 141245Z 16006KT 21/16 A2998 RMK A01 T02060160  RH  075%=      5-min Rain = 0
KTAS 141246Z 16006KT 21/16 A2998 RMK A01 T02070161  RH  075%=      5-min Rain = 0
KTAS 141247Z 16006KT 21/16 A2998 RMK A01 T02070161  RH  075%=      5-min Rain = 0
KTAS 141248Z 16006KT 21/16 A2998 RMK A01 T02080161  RH  075%=      5-min Rain = 0
KTAS 141249Z 16005KT 21/16 A2998 RMK A01 T02080162  RH  075%=      5-min Rain = 0
KTAS 141250Z 16008KT 21/16 A2998 RMK A01 T02090162  RH  074%=      5-min Rain = 0
KTAS 141251Z 16007KT 21/16 A2998 RMK A01 T02100162  RH  074%=      5-min Rain = 0
KTAS 141252Z 16007KT 21/16 A2998 RMK A01 T02100162  RH  074%=      5-min Rain = 0
KTAS 141253Z 16008KT 21/16 A2998 RMK A01 T02110162  RH  074%=      5-min Rain = 0
KTAS 141254Z 16008KT 21/16 A2998 RMK A01 T02120163  RH  073%=      5-min Rain = 0
KTAS 141255Z 16009KT 21/16 A2998 RMK A01 T02130163  RH  073%=      5-min Rain = 0
KTAS 141256Z 16009KT 21/16 A2998 RMK A01 T02140163  RH  073%=      5-min Rain = 0
KTAS 141257Z 16007KT 22/16 A2998 RMK A01 T02160164  RH  072%=      5-min Rain = 0
KTAS 141258Z 16008KT 22/17 A2998 RMK A01 T02170165  RH  072%=      5-min Rain = 0
KTAS 141259Z 17009KT 22/16 A2998 RMK A01 T02180164  RH  072%=      5-min Rain = 0
KTAS 141300Z 16010KT 22/16 A2998 RMK A01 T02180164  RH  071%=      5-min Rain = 0
KTAS 141301Z 16009KT 22/17 A2998 RMK A01 T02190165  RH  071%=      5-min Rain = 0
KTAS 141302Z 16011KT 22/17 A2998 RMK A01 T02200165  RH  071%=      5-min Rain = 0
KTAS 141303Z 16009KT 22/17 A2998 RMK A01 T02190165  RH  071%=      5-min Rain = 0
KTAS 141304Z 16010KT 22/17 A2998 RMK A01 T02200166  RH  071%=      5-min Rain = 0
KTAS 141305Z 16012KT 22/17 A2998 RMK A01 T02210166  RH  071%=      5-min Rain = 0
KTAS 141306Z 16011KT 22/17 A2998 RMK A01 T02210166  RH  071%=      5-min Rain = 0
KTAS 141307Z 16012KT 22/17 A2998 RMK A01 T02220166  RH  071%=      5-min Rain = 0
KTAS 141308Z 16010KT 22/17 A2998 RMK A01 T02220166  RH  071%=      5-min Rain = 0
KTAS 141309Z 17011KT 22/17 A2998 RMK A01 T02230167  RH  071%=      5-min Rain = 0
KTAS 141310Z 17011KT 22/17 A2998 RMK A01 T02230167  RH  070%=      5-min Rain = 0
KTAS 141311Z 17011KT 22/17 A2998 RMK A01 T02240167  RH  070%=      5-min Rain = 0
KTAS 141312Z 16011KT 22/17 A2998 RMK A01 T02240167  RH  070%=      5-min Rain = 0
KTAS 141313Z 16012KT 23/17 A2998 RMK A01 T02250167  RH  070%=      5-min Rain = 0
KTAS 141314Z 17013KT 23/17 A2998 RMK A01 T02260167  RH  069%=      5-min Rain = 0
KTAS 141315Z 17013KT 23/17 A2998 RMK A01 T02270167  RH  069%=      5-min Rain = 0
KTAS 141316Z 17013G18KT 23/17 A2998 RMK A01 T02270167  RH  069%=      5-min Rain = 0
KTAS 141317Z 17012KT 23/17 A2998 RMK A01 T02280168  RH  069%=      5-min Rain = 0
KTAS 141318Z 16013G19KT 23/17 A2998 RMK A01 T02290168  RH  068%=      5-min Rain = 0
KTAS 141319Z 16015KT 23/17 A2998 RMK A01 T02300168  RH  068%=      5-min Rain = 0
KTAS 141320Z 17013KT 23/17 A2998 RMK A01 T02300168  RH  068%=      5-min Rain = 0
KTAS 141321Z 16013KT 23/17 A2998 RMK A01 T02300168  RH  068%=      5-min Rain = 0
KTAS 141322Z 16015KT 23/17 A2998 RMK A01 T02300168  RH  068%=      5-min Rain = 0
KTAS 141323Z 16016KT 23/17 A2998 RMK A01 T02300168  RH  068%=      5-min Rain = 0
KTAS 141324Z 16013KT 23/17 A2998 RMK A01 T02300168  RH  068%=      5-min Rain = 0
KTAS 141325Z 17013KT 23/17 A2999 RMK A01 T02310168  RH  068%=      5-min Rain = 0
KTAS 141326Z 17014KT 23/17 A2999 RMK A01 T02320169  RH  067%=      5-min Rain = 0
KTAS 141327Z 17015KT 23/17 A2999 RMK A01 T02320168  RH  067%=      5-min Rain = 0
KTAS 141328Z 18016KT 23/17 A2999 RMK A01 T02310168  RH  068%=      5-min Rain = 0
KTAS 141329Z 17014KT 23/17 A2999 RMK A01 T02300169  RH  068%=      5-min Rain = 0
KTAS 141330Z 18012KT 23/17 A2999 RMK A01 T02310169  RH  068%=      5-min Rain = 0
KTAS 141331Z 17014KT 23/17 A2999 RMK A01 T02310169  RH  068%=      5-min Rain = 0
KTAS 141332Z 17014KT 23/17 A2999 RMK A01 T02310169  RH  068%=      5-min Rain = 0
KTAS 141333Z 17016KT 23/17 A2999 RMK A01 T02300169  RH  068%=      5-min Rain = 0
KTAS 141334Z 17015KT 23/17 A2999 RMK A01 T02290169  RH  069%=      5-min Rain = 0
KTAS 141335Z 17015G20KT 23/17 A2999 RMK A01 T02280169  RH  069%=      5-min Rain = 0
KTAS 141336Z 17013KT 23/17 A2999 RMK A01 T02280170  RH  070%=      5-min Rain = 0
KTAS 141337Z 17015KT 23/17 A2999 RMK A01 T02280169  RH  069%=      5-min Rain = 0
KTAS 141338Z 17015KT 23/17 A2999 RMK A01 T02270169  RH  070%=      5-min Rain = 0
KTAS 141339Z 17012KT 23/17 A2999 RMK A01 T02270170  RH  070%=      5-min Rain = 0
KTAS 141340Z 17014KT 23/17 A2999 RMK A01 T02280170  RH  070%=      5-min Rain = 0
KTAS 141341Z 17015KT 23/17 A2999 RMK A01 T02280170  RH  070%=      5-min Rain = 0
KTAS 141342Z 17016KT 23/17 A2999 RMK A01 T02280170  RH  070%=      5-min Rain = 0
KTAS 141343Z 17015KT 23/17 A2999 RMK A01 T02270170  RH  070%=      5-min Rain = 0
KTAS 141344Z 18015KT 23/17 A2999 RMK A01 T02280170  RH  070%=      5-min Rain = 0
KTAS 141345Z 17013KT 23/17 A2999 RMK A01 T02280171  RH  070%=      5-min Rain = 0
KTAS 141346Z 18014KT 23/17 A2999 RMK A01 T02270170  RH  070%=      5-min Rain = 0
KTAS 141347Z 18016KT 23/17 A2999 RMK A01 T02260170  RH  071%=      5-min Rain = 0
KTAS 141348Z 18014KT 23/17 A2999 RMK A01 T02250170  RH  071%=      5-min Rain = 0
KTAS 141349Z 18014KT 22/17 A2999 RMK A01 T02240170  RH  071%=      5-min Rain = 0
KTAS 141350Z 19015KT 22/17 A2999 RMK A01 T02240171  RH  072%=      5-min Rain = 0
KTAS 141351Z 19014KT 22/17 A2999 RMK A01 T02230170  RH  072%=      5-min Rain = 0
KTAS 141352Z 19014KT 22/17 A2999 RMK A01 T02220170  RH  072%=      5-min Rain = 0
KTAS 141353Z 18014KT 22/17 A2999 RMK A01 T02220170  RH  072%=      5-min Rain = 0
KTAS 141354Z 19013KT 22/17 A2999 RMK A01 T02220170  RH  073%=      5-min Rain = 0
KTAS 141355Z 18015KT 22/17 A2999 RMK A01 T02220171  RH  073%=      5-min Rain = 0
KTAS 141356Z 18016KT 22/17 A30 RMK A01 T02220171  RH  073%=      5-min Rain = 0
KTAS 141357Z 18015KT 22/17 A30 RMK A01 T02230172  RH  073%=      5-min Rain = 0
KTAS 141358Z 18014KT 22/17 A30 RMK A01 T02240173  RH  073%=      5-min Rain = 0
KTAS 141359Z 18012KT 23/18 A30 RMK A01 T02280175  RH  072%=      5-min Rain = 0
KTAS 141400Z 18013KT 23/17 A30 RMK A01 T02310174  RH  070%=      5-min Rain = 0
KTAS 141401Z 18014KT 23/17 A30 RMK A01 T02320174  RH  070%=      5-min Rain = 0
KTAS 141402Z 19012KT 23/17 A30 RMK A01 T02320174  RH  070%=      5-min Rain = 0
KTAS 141403Z 19014G19KT 23/18 A30 RMK A01 T02340175  RH  069%=      5-min Rain = 0
KTAS 141404Z 18016KT 24/17 A30 RMK A01 T02350173  RH  068%=      5-min Rain = 0
KTAS 141405Z 18016KT 23/17 A30 RMK A01 T02330173  RH  069%=      5-min Rain = 0
KTAS 141406Z 18016KT 23/17 A30 RMK A01 T02330173  RH  069%=      5-min Rain = 0
KTAS 141407Z 18016KT 23/17 A30 RMK A01 T02330173  RH  069%=      5-min Rain = 0
KTAS 141408Z 18016KT 23/17 A30 RMK A01 T02340173  RH  069%=      5-min Rain = 0
KTAS 141409Z 18015KT 23/17 A30 RMK A01 T02340174  RH  069%=      5-min Rain = 0
KTAS 141410Z 19015KT 24/17 A30 RMK A01 T02350173  RH  068%=      5-min Rain = 0
KTAS 141411Z 19015KT 23/17 A30 RMK A01 T02340173  RH  069%=      5-min Rain = 0
KTAS 141412Z 18016KT 24/17 A30 RMK A01 T02350174  RH  068%=      5-min Rain = 0
KTAS 141413Z 19016KT 23/17 A30 RMK A01 T02340173  RH  068%=      5-min Rain = 0
KTAS 141414Z 18015KT 24/17 A30 RMK A01 T02350174  RH  069%=      5-min Rain = 0
KTAS 141415Z 18012KT 24/17 A30 RMK A01 T02360173  RH  068%=      5-min Rain = 0
KTAS 141416Z 18014KT 24/17 A30 RMK A01 T02370174  RH  068%=      5-min Rain = 0
KTAS 141417Z 19016KT 24/17 A30 RMK A01 T02370173  RH  067%=      5-min Rain = 0
KTAS 141418Z 19012KT 24/17 A30 RMK A01 T02370174  RH  068%=      5-min Rain = 0
KTAS 141419Z 19011KT 24/18 A30 RMK A01 T02390175  RH  067%=      5-min Rain = 0
KTAS 141420Z 19013KT 24/17 A30 RMK A01 T02410174  RH  066%=      5-min Rain = 0
KTAS 141421Z 18010KT 24/18 A30 RMK A01 T02410175  RH  066%=      5-min Rain = 0
KTAS 141422Z 19012KT 24/18 A30 RMK A01 T02430175  RH  066%=      5-min Rain = 0
KTAS 141423Z 19013G18KT 24/18 A30 RMK A01 T02430175  RH  066%=      5-min Rain = 0
KTAS 141424Z 19014KT 24/17 A30 RMK A01 T02440174  RH  065%=      5-min Rain = 0
KTAS 141425Z 18015KT 24/17 A30 RMK A01 T02420174  RH  065%=      5-min Rain = 0
KTAS 141426Z 19014KT 24/17 A30 RMK A01 T02410174  RH  066%=      5-min Rain = 0
KTAS 141427Z 19014KT 24/17 A30 RMK A01 T02420173  RH  066%=      5-min Rain = 0
KTAS 141428Z 18014KT 24/17 A30 RMK A01 T02410173  RH  066%=      5-min Rain = 0
KTAS 141429Z 18013KT 24/17 A30 RMK A01 T02400173  RH  066%=      5-min Rain = 0
KTAS 141430Z 19011KT 24/17 A30 RMK A01 T02400174  RH  067%=      5-min Rain = 0
KTAS 141431Z 19011G16KT 24/17 A30 RMK A01 T02420174  RH  066%=      5-min Rain = 0
KTAS 141432Z 19013G18KT 24/17 A30 RMK A01 T02410173  RH  066%=      5-min Rain = 0
KTAS 141433Z 17010G16KT 24/17 A30 RMK A01 T02400174  RH  066%=      5-min Rain = 0
KTAS 141434Z 18012KT 24/18 A30 RMK A01 T02420175  RH  066%=      5-min Rain = 0
KTAS 141435Z 18012KT 25/18 A30 RMK A01 T02450175  RH  065%=      5-min Rain = 0
KTAS 141436Z 19013KT 25/18 A30 RMK A01 T02460175  RH  065%=      5-min Rain = 0
KTAS 141437Z 20013KT 25/17 A30 RMK A01 T02460174  RH  064%=      5-min Rain = 0
KTAS 141438Z 21015KT 24/17 A30 RMK A01 T02440173  RH  065%=      5-min Rain = 0
KTAS 141439Z 19012KT 24/17 A30 RMK A01 T02440174  RH  065%=      5-min Rain = 0
KTAS 141440Z 18010KT 25/18 A30 RMK A01 T02450175  RH  065%=      5-min Rain = 0
KTAS 141441Z 18012KT 25/18 A30 RMK A01 T02480176  RH  064%=      5-min Rain = 0
KTAS 141442Z 19010G16KT 25/18 A30 RMK A01 T02530177  RH  063%=      5-min Rain = 0
KTAS 141443Z 18012KT 25/18 A30 RMK A01 T02540176  RH  062%=      5-min Rain = 0
KTAS 141444Z 18012KT 25/18 A30 RMK A01 T02530175  RH  062%=      5-min Rain = 0
KTAS 141445Z 17013KT 25/18 A30 RMK A01 T02520175  RH  062%=      5-min Rain = 0
KTAS 141446Z 18012KT 25/18 A30 RMK A01 T02510175  RH  063%=      5-min Rain = 0
KTAS 141447Z 18010KT 25/18 A30 RMK A01 T02530176  RH  062%=      5-min Rain = 0
KTAS 141448Z 19012KT 26/18 A30 RMK A01 T02550175  RH  061%=      5-min Rain = 0
KTAS 141449Z 19013KT 25/18 A30 RMK A01 T02540175  RH  062%=      5-min Rain = 0
KTAS 141450Z 18011KT 25/18 A30 RMK A01 T02540176  RH  062%=      5-min Rain = 0
KTAS 141451Z 18012KT 26/18 A30 RMK A01 T02560175  RH  061%=      5-min Rain = 0
KTAS 141452Z 18012KT 26/18 A30 RMK A01 T02560175  RH  061%=      5-min Rain = 0
KTAS 141453Z 19014KT 25/17 A30 RMK A01 T02540173  RH  061%=      5-min Rain = 0
KTAS 141454Z 19011KT 25/17 A30 RMK A01 T02520172  RH  061%=      5-min Rain = 0
KTAS 141455Z 19013KT 25/17 A30 RMK A01 T02490173  RH  062%=      5-min Rain = 0
KTAS 141456Z 20011G16KT 25/17 A30 RMK A01 T02480172  RH  063%=      5-min Rain = 0
KTAS 141457Z 20011KT 25/17 A30 RMK A01 T02480172  RH  062%=      5-min Rain = 0
KTAS 141458Z 19010KT 25/17 A30 RMK A01 T02510173  RH  062%=      5-min Rain = 0
KTAS 141459Z 18011KT 26/17 A30 RMK A01 T02550174  RH  061%=      5-min Rain = 0
KTAS 141500Z 18013KT 26/17 A30 RMK A01 T02550173  RH  060%=      5-min Rain = 0
KTAS 141501Z 18012G17KT 25/17 A30 RMK A01 T02540173  RH  061%=      5-min Rain = 0
KTAS 141502Z 20012KT 26/17 A30 RMK A01 T02580173  RH  060%=      5-min Rain = 0
KTAS 141503Z 18011KT 26/17 A30 RMK A01 T02570173  RH  060%=      5-min Rain = 0
KTAS 141504Z 20011KT 26/17 A30 RMK A01 T02580174  RH  059%=      5-min Rain = 0
KTAS 141505Z 19013KT 26/17 A30 RMK A01 T02600172  RH  058%=      5-min Rain = 0
KTAS 141506Z 20013G19KT 26/17 A30 RMK A01 T02590172  RH  059%=      5-min Rain = 0
KTAS 141507Z 19015KT 26/17 A30 RMK A01 T02590173  RH  059%=      5-min Rain = 0
KTAS 141508Z 19014KT 26/17 A30 RMK A01 T02570172  RH  059%=      5-min Rain = 0
KTAS 141509Z 20016KT 26/17 A30 RMK A01 T02550173  RH  060%=      5-min Rain = 0
KTAS 141510Z 20014KT 26/17 A30 RMK A01 T02570173  RH  060%=      5-min Rain = 0
KTAS 141511Z 19015KT 26/17 A30 RMK A01 T02560174  RH  060%=      5-min Rain = 0
KTAS 141512Z 19013KT 26/17 A30 RMK A01 T02590173  RH  059%=      5-min Rain = 0
KTAS 141513Z 19013KT 26/17 A2999 RMK A01 T02570171  RH  059%=      5-min Rain = 0
KTAS 141514Z 19012KT 26/17 A2999 RMK A01 T02560172  RH  060%=      5-min Rain = 0
KTAS 141515Z 19013G18KT 26/18 A2999 RMK A01 T02600175  RH  059%=      5-min Rain = 0
KTAS 141516Z 19015KT 26/17 A2999 RMK A01 T02630174  RH  058%=      5-min Rain = 0
KTAS 141517Z 18015KT 26/18 A2999 RMK A01 T02610175  RH  059%=      5-min Rain = 0
KTAS 141518Z 17012KT 26/17 A2999 RMK A01 T02590174  RH  059%=      5-min Rain = 0
KTAS 141519Z 18016G21KT 26/17 A2999 RMK A01 T02600174  RH  059%=      5-min Rain = 0
KTAS 141520Z 18013KT 26/18 A2999 RMK A01 T02610175  RH  059%=      5-min Rain = 0
KTAS 141521Z 18011KT 26/18 A2999 RMK A01 T02630175  RH  058%=      5-min Rain = 0
KTAS 141522Z 19014KT 27/17 A2999 RMK A01 T02650174  RH  057%=      5-min Rain = 0
KTAS 141523Z 19014KT 27/17 A2999 RMK A01 T02650174  RH  057%=      5-min Rain = 0
KTAS 141524Z 18015KT 27/17 A2999 RMK A01 T02660174  RH  057%=      5-min Rain = 0
KTAS 141525Z 19012KT 27/17 A30 RMK A01 T02650174  RH  057%=      5-min Rain = 0
KTAS 141526Z 18013KT 26/17 A30 RMK A01 T02630174  RH  058%=      5-min Rain = 0
KTAS 141527Z 19015KT 27/17 A30 RMK A01 T02650174  RH  057%=      5-min Rain = 0
KTAS 141528Z 20015KT 26/17 A30 RMK A01 T02640173  RH  057%=      5-min Rain = 0
KTAS 141529Z 19012G20KT 27/17 A30 RMK A01 T02650174  RH  058%=      5-min Rain = 0
KTAS 141530Z 19013KT 27/17 A30 RMK A01 T02660173  RH  057%=      5-min Rain = 0
KTAS 141531Z 19009KT 27/17 A30 RMK A01 T02650174  RH  057%=      5-min Rain = 0
KTAS 141532Z 19013KT 27/18 A30 RMK A01 T02680175  RH  057%=      5-min Rain = 0
KTAS 141533Z 19011KT 27/18 A2999 RMK A01 T02670175  RH  057%=      5-min Rain = 0
KTAS 141534Z 19012KT 27/18 A2999 RMK A01 T02670175  RH  057%=      5-min Rain = 0
KTAS 141535Z 20011KT 27/18 A2999 RMK A01 T02680175  RH  057%=      5-min Rain = 0
KTAS 141536Z 18014KT 27/17 A30 RMK A01 T02670174  RH  057%=      5-min Rain = 0
KTAS 141537Z 18014KT 26/17 A30 RMK A01 T02640173  RH  058%=      5-min Rain = 0
KTAS 141538Z 18012G18KT 26/18 A2999 RMK A01 T02620175  RH  059%=      5-min Rain = 0
KTAS 141539Z 18012KT 27/17 A2999 RMK A01 T02650174  RH  057%=      5-min Rain = 0
KTAS 141540Z 18013KT 27/17 A2999 RMK A01 T02650174  RH  057%=      5-min Rain = 0
KTAS 141541Z 18015KT 27/17 A30 RMK A01 T02660173  RH  056%=      5-min Rain = 0
KTAS 141542Z 18012KT 27/17 A30 RMK A01 T02660172  RH  056%=      5-min Rain = 0
KTAS 141543Z 18013KT 27/17 A2999 RMK A01 T02670174  RH  057%=      5-min Rain = 0
KTAS 141544Z 20013KT 27/17 A30 RMK A01 T02660173  RH  056%=      5-min Rain = 0
KTAS 141545Z 19012KT 27/17 A30 RMK A01 T02660172  RH  056%=      5-min Rain = 0
KTAS 141546Z 19013KT 27/17 A30 RMK A01 T02660172  RH  056%=      5-min Rain = 0
KTAS 141547Z 20014KT 27/17 A30 RMK A01 T02650170  RH  056%=      5-min Rain = 0
KTAS 141548Z 19011KT 26/17 A30 RMK A01 T02610168  RH  056%=      5-min Rain = 0
KTAS 141549Z 19010KT 26/17 A30 RMK A01 T02630171  RH  057%=      5-min Rain = 0
KTAS 141550Z 20011KT 27/17 A30 RMK A01 T02670171  RH  056%=      5-min Rain = 0
KTAS 141551Z 20012KT 27/17 A2999 RMK A01 T02700172  RH  055%=      5-min Rain = 0
KTAS 141552Z 20011G16KT 27/17 A30 RMK A01 T02710171  RH  054%=      5-min Rain = 0
KTAS 141553Z 20014KT 27/17 A30 RMK A01 T02690169  RH  054%=      5-min Rain = 0
KTAS 141554Z 20011KT 27/17 A30 RMK A01 T02680167  RH  054%=      5-min Rain = 0
KTAS 141555Z 21011KT 27/17 A30 RMK A01 T02660167  RH  055%=      5-min Rain = 0
KTAS 141556Z 21009KT 27/17 A30 RMK A01 T02650171  RH  056%=      5-min Rain = 0
KTAS 141557Z 19012KT 27/17 A30 RMK A01 T02690172  RH  055%=      5-min Rain = 0
KTAS 141558Z 19012KT 27/17 A30 RMK A01 T02690173  RH  056%=      5-min Rain = 0
KTAS 141559Z 19011KT 27/17 A30 RMK A01 T02710174  RH  055%=      5-min Rain = 0
KTAS 141600Z 19011KT 27/17 A30 RMK A01 T02720173  RH  055%=      5-min Rain = 0
KTAS 141601Z 19012KT 27/17 A30 RMK A01 T02740172  RH  054%=      5-min Rain = 0
KTAS 141602Z 19012G17KT 28/17 A30 RMK A01 T02760170  RH  053%=      5-min Rain = 0
KTAS 141603Z 19013KT 27/17 A30 RMK A01 T02730170  RH  053%=      5-min Rain = 0
KTAS 141604Z 19011KT 27/17 A30 RMK A01 T02690170  RH  055%=      5-min Rain = 0
KTAS 141605Z 19008KT 27/17 A30 RMK A01 T02720171  RH  054%=      5-min Rain = 0
KTAS 141606Z 19013KT 28/17 A30 RMK A01 T02750172  RH  053%=      5-min Rain = 0
KTAS 141607Z 19012KT 28/17 A30 RMK A01 T02770169  RH  052%=      5-min Rain = 0
KTAS 141608Z 19010KT 27/17 A30 RMK A01 T02730168  RH  053%=      5-min Rain = 0
KTAS 141609Z 19010G15KT 28/17 A30 RMK A01 T02750169  RH  053%=      5-min Rain = 0
KTAS 141610Z 21013KT 28/17 A30 RMK A01 T02800170  RH  051%=      5-min Rain = 0
KTAS 141611Z 21012KT 28/17 A2999 RMK A01 T02790167  RH  051%=      5-min Rain = 0
KTAS 141612Z 20009KT 27/17 A30 RMK A01 T02730166  RH  052%=      5-min Rain = 0
KTAS 141613Z 20009KT 27/17 A2999 RMK A01 T02730170  RH  053%=      5-min Rain = 0
KTAS 141614Z 21010KT 28/17 A2999 RMK A01 T02760169  RH  052%=      5-min Rain = 0
KTAS 141615Z 20011G16KT 28/17 A2999 RMK A01 T02780168  RH  051%=      5-min Rain = 0
KTAS 141616Z 20010KT 28/17 A2999 RMK A01 T02780169  RH  051%=      5-min Rain = 0
KTAS 141617Z 19011KT 28/17 A2999 RMK A01 T02790170  RH  051%=      5-min Rain = 0
KTAS 141618Z 19012KT 28/17 A2999 RMK A01 T02770171  RH  052%=      5-min Rain = 0
KTAS 141619Z 19012KT 28/17 A2999 RMK A01 T02780170  RH  052%=      5-min Rain = 0
KTAS 141620Z 19012KT 28/17 A2999 RMK A01 T02760170  RH  053%=      5-min Rain = 0
KTAS 141621Z 18009KT 27/17 A2999 RMK A01 T02720170  RH  054%=      5-min Rain = 0
KTAS 141622Z 19008KT 28/17 A2999 RMK A01 T02760172  RH  053%=      5-min Rain = 0
KTAS 141623Z 18009KT 28/17 A2999 RMK A01 T02820172  RH  051%=      5-min Rain = 0
KTAS 141624Z 20010KT 29/17 A2999 RMK A01 T02860168  RH  049%=      5-min Rain = 0
KTAS 141625Z 19008KT 29/17 A2999 RMK A01 T02860168  RH  049%=      5-min Rain = 0
KTAS 141626Z 19008KT 29/17 A2999 RMK A01 T02880165  RH  047%=      5-min Rain = 0
KTAS 141627Z 18010KT 29/17 A2999 RMK A01 T02860167  RH  048%=      5-min Rain = 0
KTAS 141628Z 21009KT 28/17 A2999 RMK A01 T02840166  RH  049%=      5-min Rain = 0
KTAS 141629Z 21009KT 28/17 A2999 RMK A01 T02780165  RH  050%=      5-min Rain = 0
KTAS 141630Z 20010KT 28/17 A2999 RMK A01 T02810166  RH  050%=      5-min Rain = 0
KTAS 141631Z 20009KT 29/17 A2999 RMK A01 T02860165  RH  048%=      5-min Rain = 0
KTAS 141632Z 21012KT 29/17 A2999 RMK A01 T02860165  RH  048%=      5-min Rain = 0
KTAS 141633Z 20010KT 28/17 A2999 RMK A01 T02810169  RH  051%=      5-min Rain = 0
KTAS 141634Z 20010KT 28/17 A2999 RMK A01 T02780167  RH  051%=      5-min Rain = 0
KTAS 141635Z 21011KT 28/16 A2999 RMK A01 T02770164  RH  050%=      5-min Rain = 0
KTAS 141636Z 22010KT 28/16 A2999 RMK A01 T02770162  RH  050%=      5-min Rain = 0
KTAS 141637Z 23008KT 28/16 A2999 RMK A01 T02780163  RH  050%=      5-min Rain = 0
KTAS 141638Z 21008KT 28/16 A2999 RMK A01 T02810161  RH  048%=      5-min Rain = 0
KTAS 141639Z 20010KT 28/16 A2999 RMK A01 T02810163  RH  049%=      5-min Rain = 0
KTAS 141640Z 19010KT 28/16 A2999 RMK A01 T02800162  RH  049%=      5-min Rain = 0
KTAS 141641Z 17005KT 28/16 A2999 RMK A01 T02800161  RH  048%=      5-min Rain = 0
KTAS 141642Z 17006G11KT 28/16 A2999 RMK A01 T02830162  RH  048%=      5-min Rain = 0
KTAS 141643Z 19007KT 29/16 A2999 RMK A01 T02870164  RH  047%=      5-min Rain = 0
KTAS 141644Z 20011KT 29/17 A2999 RMK A01 T02870166  RH  048%=      5-min Rain = 0
KTAS 141645Z 19011KT 29/17 A2999 RMK A01 T02910167  RH  047%=      5-min Rain = 0
KTAS 141646Z 20009KT 29/17 A2999 RMK A01 T02930167  RH  046%=      5-min Rain = 0
KTAS 141647Z 20009KT 29/17 A2999 RMK A01 T02900165  RH  047%=      5-min Rain = 0
KTAS 141648Z 21007KT 29/17 A2999 RMK A01 T02870165  RH  048%=      5-min Rain = 0
KTAS 141649Z 20006KT 29/17 A2999 RMK A01 T02880165  RH  048%=      5-min Rain = 0
KTAS 141650Z 17013KT 29/17 A2999 RMK A01 T02910166  RH  047%=      5-min Rain = 0
KTAS 141651Z 18013KT 29/17 A2999 RMK A01 T02940165  RH  046%=      5-min Rain = 0
KTAS 141652Z 19009KT 29/16 A2999 RMK A01 T02910164  RH  046%=      5-min Rain = 0
KTAS 141653Z 20012KT 29/17 A2999 RMK A01 T02870166  RH  048%=      5-min Rain = 0
KTAS 141654Z 19015KT 29/16 A2999 RMK A01 T02910164  RH  046%=      5-min Rain = 0
KTAS 141655Z 20010KT 29/16 A2999 RMK A01 T02870163  RH  047%=      5-min Rain = 0
KTAS 141656Z 22010KT 29/16 A2999 RMK A01 T02850164  RH  048%=      5-min Rain = 0
KTAS 141657Z 22009KT 29/16 A2999 RMK A01 T02910163  RH  046%=      5-min Rain = 0
KTAS 141658Z 20009KT 29/16 A2999 RMK A01 T02930161  RH  045%=      5-min Rain = 0
KTAS 141659Z 20014G19KT 29/17 A2999 RMK A01 T02930165  RH  046%=      5-min Rain = 0
KTAS 141700Z 21012KT 29/17 A2999 RMK A01 T02930166  RH  046%=      5-min Rain = 0
KTAS 141701Z 21011KT 29/17 A2999 RMK A01 T02900165  RH  047%=      5-min Rain = 0
KTAS 141702Z 18012KT 29/17 A2999 RMK A01 T02890166  RH  048%=      5-min Rain = 0
KTAS 141703Z 17015KT 29/16 A2999 RMK A01 T02940163  RH  045%=      5-min Rain = 0
KTAS 141704Z 18014KT 30/16 A2999 RMK A01 T02950163  RH  045%=      5-min Rain = 0
KTAS 141705Z 18012KT 30/16 A2999 RMK A01 T02960163  RH  045%=      5-min Rain = 0
KTAS 141706Z 18010KT 30/16 A2999 RMK A01 T02960164  RH  045%=      5-min Rain = 0
KTAS 141707Z 17015KT 30/17 A2999 RMK A01 T02950165  RH  045%=      5-min Rain = 0
KTAS 141708Z 18012KT 30/17 A2999 RMK A01 T02990165  RH  044%=      5-min Rain = 0
KTAS 141709Z 17013KT 30/16 A2999 RMK A01 T02990164  RH  044%=      5-min Rain = 0
KTAS 141710Z 19012KT 30/16 A2999 RMK A01 T02960164  RH  045%=      5-min Rain = 0
KTAS 141711Z 20011KT 30/16 A2999 RMK A01 T02990164  RH  044%=      5-min Rain = 0
KTAS 141712Z 21012KT 30/16 A2999 RMK A01 T03030161  RH  042%=      5-min Rain = 0
KTAS 141713Z 22009G14KT 30/16 A2999 RMK A01 T02990157  RH  042%=      5-min Rain = 0
KTAS 141714Z 22011KT 30/16 A2999 RMK A01 T02990159  RH  043%=      5-min Rain = 0
KTAS 141715Z 21011G24KT 30/16 A2999 RMK A01 T02960160  RH  044%=      5-min Rain = 0
KTAS 141716Z 18013KT 30/16 A2999 RMK A01 T03000161  RH  043%=      5-min Rain = 0
KTAS 141717Z 18011KT 30/16 A2999 RMK A01 T02980161  RH  044%=      5-min Rain = 0
KTAS 141718Z 19010KT 29/16 A2999 RMK A01 T02940162  RH  045%=      5-min Rain = 0
KTAS 141719Z 19010KT 30/16 A2999 RMK A01 T02970164  RH  045%=      5-min Rain = 0
KTAS 141720Z 20012KT 30/16 A2999 RMK A01 T03020162  RH  043%=      5-min Rain = 0
KTAS 141721Z 21011KT 30/16 A2999 RMK A01 T03010159  RH  042%=      5-min Rain = 0
KTAS 141722Z 22010KT 30/16 A2999 RMK A01 T02990159  RH  043%=      5-min Rain = 0
KTAS 141723Z 21012KT 30/16 A2998 RMK A01 T03000159  RH  043%=      5-min Rain = 0
KTAS 141724Z 21013G19KT 30/16 A2998 RMK A01 T02970160  RH  044%=      5-min Rain = 0
KTAS 141725Z 18011KT 30/16 A2998 RMK A01 T02990162  RH  044%=      5-min Rain = 0
KTAS 141726Z 17008KT 30/16 A2998 RMK A01 T03020160  RH  042%=      5-min Rain = 0
KTAS 141727Z 19008KT 30/16 A2998 RMK A01 T03040161  RH  042%=      5-min Rain = 0
KTAS 141728Z 17010KT 31/16 A2998 RMK A01 T03060159  RH  041%=      5-min Rain = 0
KTAS 141729Z 16010KT 30/16 A2998 RMK A01 T03020157  RH  042%=      5-min Rain = 0
KTAS 141730Z 17009KT 30/16 A2998 RMK A01 T03000157  RH  042%=      5-min Rain = 0
KTAS 141731Z 18012G17KT 30/16 A2998 RMK A01 T02970155  RH  042%=      5-min Rain = 0
KTAS 141732Z 18009KT 30/16 A2998 RMK A01 T02950155  RH  043%=      5-min Rain = 0
KTAS 141733Z 20008KT 30/15 A2998 RMK A01 T02970150  RH  041%=      5-min Rain = 0
KTAS 141734Z 20007KT 30/15 A2998 RMK A01 T02960151  RH  041%=      5-min Rain = 0
KTAS 141735Z 20010KT 30/15 A2998 RMK A01 T02980151  RH  041%=      5-min Rain = 0
KTAS 141736Z 21003KT 30/15 A2998 RMK A01 T02950150  RH  041%=      5-min Rain = 0
KTAS 141737Z 19005KT 30/15 A2998 RMK A01 T02950153  RH  042%=      5-min Rain = 0
KTAS 141738Z 17009KT 30/16 A2998 RMK A01 T02980155  RH  042%=      5-min Rain = 0
KTAS 141739Z 17006KT 30/16 A2998 RMK A01 T02990155  RH  042%=      5-min Rain = 0
KTAS 141740Z 17008KT 30/16 A2998 RMK A01 T02980155  RH  042%=      5-min Rain = 0
KTAS 141741Z 21010KT 30/15 A2998 RMK A01 T03020152  RH  040%=      5-min Rain = 0
KTAS 141742Z 21010KT 31/15 A2998 RMK A01 T03050153  RH  040%=      5-min Rain = 0
KTAS 141743Z 22007KT 31/15 A2998 RMK A01 T03060151  RH  039%=      5-min Rain = 0
KTAS 141744Z 23005KT 30/15 A2998 RMK A01 T03000152  RH  041%=      5-min Rain = 0
KTAS 141745Z 20006KT 30/15 A2998 RMK A01 T02990153  RH  041%=      5-min Rain = 0
KTAS 141746Z 20008KT 30/15 A2997 RMK A01 T03010154  RH  041%=      5-min Rain = 0
KTAS 141747Z 22012KT 30/16 A2997 RMK A01 T03030157  RH  041%=      5-min Rain = 0
KTAS 141748Z 22010KT 30/16 A2997 RMK A01 T02990157  RH  042%=      5-min Rain = 0
KTAS 141749Z 21011KT 30/16 A2997 RMK A01 T02960159  RH  043%=      5-min Rain = 0
KTAS 141750Z 21011KT 30/16 A2997 RMK A01 T02970160  RH  044%=      5-min Rain = 0
KTAS 141751Z 21010KT 30/16 A2997 RMK A01 T02980160  RH  043%=      5-min Rain = 0
KTAS 141752Z 22009G14KT 30/16 A2997 RMK A01 T02990159  RH  043%=      5-min Rain = 0
KTAS 141753Z 21012KT 30/16 A2997 RMK A01 T03010157  RH  042%=      5-min Rain = 0
KTAS 141754Z 22009KT 30/16 A2997 RMK A01 T02990157  RH  042%=      5-min Rain = 0
KTAS 141755Z 19011G16KT 30/16 A2997 RMK A01 T03010157  RH  042%=      5-min Rain = 0
KTAS 141756Z 19011KT 30/16 A2997 RMK A01 T03010156  RH  041%=      5-min Rain = 0
KTAS 141757Z 18011KT 30/16 A2997 RMK A01 T03030155  RH  041%=      5-min Rain = 0
KTAS 141758Z 18010KT 31/16 A2997 RMK A01 T03070158  RH  041%=      5-min Rain = 0
KTAS 141759Z 17008KT 31/16 A2997 RMK A01 T03070158  RH  041%=      5-min Rain = 0
KTAS 141800Z 22007KT 31/16 A2997 RMK A01 T03060156  RH  040%=      5-min Rain = 0
KTAS 141801Z 20009KT 31/15 A2997 RMK A01 T03070153  RH  039%=      5-min Rain = 0
KTAS 141802Z 21008G13KT 30/15 A2997 RMK A01 T03040154  RH  040%=      5-min Rain = 0
KTAS 141803Z 18010KT 31/16 A2997 RMK A01 T03070156  RH  040%=      5-min Rain = 0
KTAS 141804Z 20006KT 31/16 A2997 RMK A01 T03080155  RH  040%=      5-min Rain = 0
KTAS 141805Z 21006KT 30/16 A2997 RMK A01 T03040156  RH  041%=      5-min Rain = 0
KTAS 141806Z 21008KT 31/16 A2997 RMK A01 T03060156  RH  040%=      5-min Rain = 0
KTAS 141807Z 22005KT 31/16 A2997 RMK A01 T03070155  RH  040%=      5-min Rain = 0
KTAS 141808Z 18005KT 31/16 A2997 RMK A01 T03060155  RH  040%=      5-min Rain = 0
KTAS 141809Z 17009G19KT 31/16 A2997 RMK A01 T03090156  RH  040%=      5-min Rain = 0
KTAS 141810Z 22009G15KT 31/15 A2997 RMK A01 T03120154  RH  039%=      5-min Rain = 0
KTAS 141811Z 22009KT 31/15 A2997 RMK A01 T03110153  RH  038%=      5-min Rain = 0
KTAS 141812Z 20007KT 31/16 A2997 RMK A01 T03110155  RH  039%=      5-min Rain = 0
KTAS 141813Z 19009KT 32/15 A2997 RMK A01 T03160154  RH  038%=      5-min Rain = 0
KTAS 141814Z 19014KT 32/15 A2997 RMK A01 T03180153  RH  037%=      5-min Rain = 0
KTAS 141815Z 18009KT 32/15 A2997 RMK A01 T03150153  RH  038%=      5-min Rain = 0
KTAS 141816Z 17007KT 31/15 A2997 RMK A01 T03090153  RH  039%=      5-min Rain = 0
KTAS 141817Z 21010KT 31/16 A2997 RMK A01 T03090155  RH  039%=      5-min Rain = 0
KTAS 141818Z 22009KT 31/15 A2997 RMK A01 T03140153  RH  038%=      5-min Rain = 0
KTAS 141819Z 23004KT 31/15 A2997 RMK A01 T03110152  RH  038%=      5-min Rain = 0
KTAS 141820Z 21004KT 31/15 A2997 RMK A01 T03080154  RH  039%=      5-min Rain = 0
KTAS 141821Z 18008KT 31/15 A2997 RMK A01 T03090154  RH  039%=      5-min Rain = 0
KTAS 141822Z 16011KT 31/16 A2996 RMK A01 T03130155  RH  039%=      5-min Rain = 0
KTAS 141823Z 17009KT 32/16 A2996 RMK A01 T03160156  RH  038%=      5-min Rain = 0
KTAS 141824Z 21009KT 32/16 A2996 RMK A01 T03170156  RH  038%=      5-min Rain = 0
KTAS 141825Z 19013KT 32/16 A2996 RMK A01 T03170156  RH  038%=      5-min Rain = 0
KTAS 141826Z 16013KT 32/15 A2996 RMK A01 T03170154  RH  037%=      5-min Rain = 0
KTAS 141827Z 17013KT 32/16 A2996 RMK A01 T03170155  RH  038%=      5-min Rain = 0
KTAS 141828Z 17011KT 32/15 A2996 RMK A01 T03150154  RH  038%=      5-min Rain = 0
KTAS 141829Z 15013KT 31/15 A2996 RMK A01 T03130151  RH  038%=      5-min Rain = 0
KTAS 141830Z 16011KT 31/15 A2996 RMK A01 T03130149  RH  037%=      5-min Rain = 0
KTAS 141831Z 16011KT 31/15 A2996 RMK A01 T03120151  RH  038%=      5-min Rain = 0
KTAS 141832Z 16011KT 32/15 A2996 RMK A01 T03150151  RH  037%=      5-min Rain = 0
KTAS 141833Z 16011KT 32/15 A2996 RMK A01 T03150151  RH  037%=      5-min Rain = 0
KTAS 141834Z 15009KT 32/15 A2996 RMK A01 T03150150  RH  037%=      5-min Rain = 0
KTAS 141835Z 15010KT 32/15 A2996 RMK A01 T03160146  RH  036%=      5-min Rain = 0
KTAS 141836Z 15008KT 31/15 A2996 RMK A01 T03130145  RH  036%=      5-min Rain = 0
KTAS 141837Z 18012KT 31/15 A2996 RMK A01 T03130150  RH  037%=      5-min Rain = 0
KTAS 141838Z 18011KT 31/15 A2996 RMK A01 T03120152  RH  038%=      5-min Rain = 0
KTAS 141839Z 17012KT 31/15 A2996 RMK A01 T03120153  RH  038%=      5-min Rain = 0
KTAS 141840Z 18014KT 31/15 A2996 RMK A01 T03140151  RH  037%=      5-min Rain = 0
KTAS 141841Z 18009KT 31/15 A2996 RMK A01 T03110151  RH  038%=      5-min Rain = 0
KTAS 141842Z 15008KT 31/15 A2996 RMK A01 T03130147  RH  037%=      5-min Rain = 0
KTAS 141843Z 17011KT 31/15 A2996 RMK A01 T03120151  RH  038%=      5-min Rain = 0
KTAS 141844Z 16012KT 31/15 A2996 RMK A01 T03130154  RH  038%=      5-min Rain = 0
KTAS 141845Z 16008KT 31/15 A2996 RMK A01 T03140154  RH  038%=      5-min Rain = 0
KTAS 141846Z 18003KT 31/16 A2996 RMK A01 T03130156  RH  039%=      5-min Rain = 0
KTAS 141847Z 19010G19KT 32/16 A2996 RMK A01 T03150155  RH  038%=      5-min Rain = 0
KTAS 141848Z 20010KT 32/16 A2996 RMK A01 T03190157  RH  038%=      5-min Rain = 0
KTAS 141849Z 17011KT 33/16 A2996 RMK A01 T03250156  RH  036%=      5-min Rain = 0
KTAS 141850Z 16012KT 33/15 A2996 RMK A01 T03250154  RH  036%=      5-min Rain = 0
KTAS 141851Z 17008KT 32/16 A2996 RMK A01 T03240155  RH  036%=      5-min Rain = 0
KTAS 141852Z 16011KT 33/15 A2996 RMK A01 T03260153  RH  035%=      5-min Rain = 0
KTAS 141853Z 15008KT 32/15 A2996 RMK A01 T03240151  RH  035%=      5-min Rain = 0
KTAS 141854Z 18010G15KT 32/15 A2996 RMK A01 T03230154  RH  036%=      5-min Rain = 0
KTAS 141855Z 19009G14KT 32/16 A2996 RMK A01 T03220155  RH  037%=      5-min Rain = 0
KTAS 141856Z 19015KT 32/15 A2996 RMK A01 T03230154  RH  036%=      5-min Rain = 0
KTAS 141857Z 17014KT 32/15 A2996 RMK A01 T03230153  RH  036%=      5-min Rain = 0
KTAS 141858Z 17013KT 32/15 A2996 RMK A01 T03210151  RH  036%=      5-min Rain = 0
KTAS 141859Z 16011KT 32/15 A2996 RMK A01 T03160150  RH  037%=      5-min Rain = 0
KTAS 141900Z 16011KT 32/15 A2996 RMK A01 T03160150  RH  037%=      5-min Rain = 0
KTAS 141901Z 16008KT 32/15 A2995 RMK A01 T03150150  RH  037%=      5-min Rain = 0
KTAS 141902Z 18011KT 31/15 A2995 RMK A01 T03140152  RH  038%=      5-min Rain = 0
KTAS 141903Z 16010KT 31/15 A2995 RMK A01 T03140152  RH  037%=      5-min Rain = 0
KTAS 141904Z 17007G12KT 32/15 A2995 RMK A01 T03160152  RH  037%=      5-min Rain = 0
KTAS 141905Z 18008KT 32/15 A2995 RMK A01 T03210153  RH  036%=      5-min Rain = 0
KTAS 141906Z 16010KT 33/15 A2995 RMK A01 T03250151  RH  035%=      5-min Rain = 0
KTAS 141907Z 16009KT 33/15 A2995 RMK A01 T03250151  RH  035%=      5-min Rain = 0
KTAS 141908Z 19008KT 33/15 A2995 RMK A01 T03260151  RH  035%=      5-min Rain = 0
KTAS 141909Z 20008KT 32/15 A2995 RMK A01 T03230152  RH  036%=      5-min Rain = 0
KTAS 141910Z 20009KT 32/15 A2995 RMK A01 T03210154  RH  036%=      5-min Rain = 0
KTAS 141911Z 18011KT 32/15 A2995 RMK A01 T03210154  RH  037%=      5-min Rain = 0
KTAS 141912Z 16010KT 32/15 A2995 RMK A01 T03240153  RH  036%=      5-min Rain = 0
KTAS 141913Z 18013KT 33/15 A2995 RMK A01 T03250152  RH  035%=      5-min Rain = 0
KTAS 141914Z 18014G20KT 32/15 A2995 RMK A01 T03210151  RH  036%=      5-min Rain = 0
KTAS 141915Z 18015KT 32/15 A2995 RMK A01 T03200150  RH  036%=      5-min Rain = 0
KTAS 141916Z 17011KT 32/15 A2995 RMK A01 T03200148  RH  035%=      5-min Rain = 0
KTAS 141917Z 18014G19KT 32/15 A2995 RMK A01 T03200149  RH  036%=      5-min Rain = 0
KTAS 141918Z 18014KT 32/15 A2995 RMK A01 T03190150  RH  036%=      5-min Rain = 0
KTAS 141919Z 19012KT 32/15 A2995 RMK A01 T03200152  RH  036%=      5-min Rain = 0
KTAS 141920Z 18007KT 32/15 A2995 RMK A01 T03220152  RH  036%=      5-min Rain = 0
KTAS 141921Z 18010KT 32/15 A2995 RMK A01 T03180152  RH  037%=      5-min Rain = 0
KTAS 141922Z 18009KT 32/15 A2995 RMK A01 T03180152  RH  037%=      5-min Rain = 0
KTAS 141923Z 18009KT 32/15 A2995 RMK A01 T03180153  RH  037%=      5-min Rain = 0
KTAS 141924Z 19013KT 32/15 A2995 RMK A01 T03190153  RH  037%=      5-min Rain = 0
KTAS 141925Z 20012KT 32/15 A2995 RMK A01 T03210153  RH  036%=      5-min Rain = 0
KTAS 141926Z 21008KT 32/15 A2995 RMK A01 T03190151  RH  036%=      5-min Rain = 0
KTAS 141927Z 21008KT 32/15 A2995 RMK A01 T03190151  RH  036%=      5-min Rain = 0
KTAS 141928Z 21012KT 32/15 A2995 RMK A01 T03180150  RH  036%=      5-min Rain = 0
KTAS 141929Z 21012KT 32/15 A2994 RMK A01 T03190151  RH  036%=      5-min Rain = 0
KTAS 141930Z 21016G21KT 32/15 A2994 RMK A01 T03230151  RH  035%=      5-min Rain = 0
KTAS 141931Z 20012KT 32/15 A2994 RMK A01 T03230150  RH  035%=      5-min Rain = 0
KTAS 141932Z 19009KT 32/15 A2995 RMK A01 T03190149  RH  036%=      5-min Rain = 0
KTAS 141933Z 21011G16KT 32/15 A2994 RMK A01 T03190148  RH  035%=      5-min Rain = 0
KTAS 141934Z 21011G16KT 32/15 A2994 RMK A01 T03170147  RH  036%=      5-min Rain = 0
KTAS 141935Z 19014KT 32/15 A2994 RMK A01 T03180146  RH  035%=      5-min Rain = 0
KTAS 141936Z 21008G13KT 32/15 A2994 RMK A01 T03230147  RH  034%=      5-min Rain = 0
KTAS 141937Z 20015KT 33/14 A2994 RMK A01 T03250143  RH  033%=      5-min Rain = 0
KTAS 141938Z 20015KT 32/14 A2994 RMK A01 T03190138  RH  033%=      5-min Rain = 0
KTAS 141939Z 20012G17KT 31/14 A2994 RMK A01 T03140138  RH  034%=      5-min Rain = 0
KTAS 141940Z 21009KT 31/14 A2994 RMK A01 T03130136  RH  034%=      5-min Rain = 0
KTAS 141941Z 20012KT 31/13 A2994 RMK A01 T03130134  RH  034%=      5-min Rain = 0
KTAS 141942Z 19012KT 32/14 A2994 RMK A01 T03160135  RH  033%=      5-min Rain = 0
KTAS 141943Z 19010KT 32/14 A2994 RMK A01 T03170135  RH  033%=      5-min Rain = 0
KTAS 141944Z 18008KT 32/14 A2994 RMK A01 T03170135  RH  033%=      5-min Rain = 0
KTAS 141945Z 18009KT 32/13 A2994 RMK A01 T03220133  RH  032%=      5-min Rain = 0
KTAS 141946Z 19012KT 32/13 A2994 RMK A01 T03240132  RH  031%=      5-min Rain = 0
KTAS 141947Z 20008KT 32/13 A2994 RMK A01 T03240134  RH  032%=      5-min Rain = 0
KTAS 141948Z 23008KT 33/13 A2994 RMK A01 T03260133  RH  031%=      5-min Rain = 0
KTAS 141949Z 22011KT 33/13 A2994 RMK A01 T03280132  RH  031%=      5-min Rain = 0
KTAS 141950Z 21012KT 33/13 A2994 RMK A01 T03270129  RH  030%=      5-min Rain = 0
KTAS 141951Z 22010KT 33/13 A2994 RMK A01 T03270126  RH  029%=      5-min Rain = 0
KTAS 141952Z 21012KT 33/13 A2993 RMK A01 T03290125  RH  029%=      5-min Rain = 0
KTAS 141953Z 20009KT 33/13 A2993 RMK A01 T03280125  RH  029%=      5-min Rain = 0
KTAS 141954Z 22012KT 33/13 A2993 RMK A01 T03260125  RH  029%=      5-min Rain = 0
KTAS 141955Z 19013KT 33/12 A2993 RMK A01 T03300123  RH  028%=      5-min Rain = 0
KTAS 141956Z 17014KT 33/12 A2993 RMK A01 T03340118  RH  027%=      5-min Rain = 0
KTAS 141957Z 17011KT 33/12 A2993 RMK A01 T03330115  RH  027%=      5-min Rain = 0
KTAS 141958Z 19014KT 33/12 A2993 RMK A01 T03320115  RH  027%=      5-min Rain = 0
KTAS 141959Z 19012KT 33/12 A2993 RMK A01 T03310120  RH  028%=      5-min Rain = 0
KTAS 142000Z 20013KT 33/12 A2993 RMK A01 T03340121  RH  027%=      5-min Rain = 0
KTAS 142001Z 19009KT 33/12 A2993 RMK A01 T03320118  RH  027%=      5-min Rain = 0
KTAS 142002Z 19009KT 33/12 A2993 RMK A01 T03340121  RH  027%=      5-min Rain = 0
KTAS 142003Z 20009KT 33/12 A2993 RMK A01 T03330122  RH  028%=      5-min Rain = 0
KTAS 142004Z 22008KT 33/12 A2993 RMK A01 T03310115  RH  027%=      5-min Rain = 0
KTAS 142005Z 23012KT 33/11 A2993 RMK A01 T03300111  RH  026%=      5-min Rain = 0
KTAS 142006Z 22010KT 33/11 A2993 RMK A01 T03280113  RH  027%=      5-min Rain = 0
KTAS 142007Z 22014KT 33/11 A2993 RMK A01 T03290113  RH  027%=      5-min Rain = 0
KTAS 142008Z 23012KT 33/12 A2993 RMK A01 T03250116  RH  028%=      5-min Rain = 0
KTAS 142009Z 23011KT 33/12 A2992 RMK A01 T03270117  RH  028%=      5-min Rain = 0
KTAS 142010Z 22010G15KT 33/12 A2993 RMK A01 T03330119  RH  027%=      5-min Rain = 0
KTAS 142011Z 21011KT 33/12 A2992 RMK A01 T03340124  RH  028%=      5-min Rain = 0
KTAS 142012Z 22008KT 33/12 A2992 RMK A01 T03280122  RH  029%=      5-min Rain = 0
KTAS 142013Z 22012KT 33/12 A2992 RMK A01 T03260122  RH  029%=      5-min Rain = 0
KTAS 142014Z 23015KT 33/13 A2992 RMK A01 T03300125  RH  029%=      5-min Rain = 0
KTAS 142015Z 23011KT 33/13 A2992 RMK A01 T03300127  RH  029%=      5-min Rain = 0
KTAS 142016Z 24008KT 33/13 A2992 RMK A01 T03330125  RH  028%=      5-min Rain = 0
KTAS 142017Z 23007KT 33/13 A2992 RMK A01 T03310126  RH  029%=      5-min Rain = 0
KTAS 142018Z 21013G18KT 33/12 A2992 RMK A01 T03330122  RH  028%=      5-min Rain = 0
KTAS 142019Z 21014KT 33/12 A2992 RMK A01 T03340118  RH  027%=      5-min Rain = 0
KTAS 142020Z 21011G16KT 33/12 A2992 RMK A01 T03330118  RH  027%=      5-min Rain = 0
KTAS 142021Z 22013G19KT 33/12 A2992 RMK A01 T03330116  RH  027%=      5-min Rain = 0
KTAS 142022Z 22008KT 33/12 A2992 RMK A01 T03270118  RH  028%=      5-min Rain = 0
KTAS 142023Z 18011KT 33/12 A2992 RMK A01 T03330117  RH  027%=      5-min Rain = 0
KTAS 142024Z 20009KT 33/11 A2991 RMK A01 T03340114  RH  026%=      5-min Rain = 0
KTAS 142025Z 19009KT 33/11 A2991 RMK A01 T03310111  RH  026%=      5-min Rain = 0
KTAS 142026Z 20008KT 33/11 A2991 RMK A01 T03290112  RH  027%=      5-min Rain = 0
KTAS 142027Z 22010KT 33/11 A2991 RMK A01 T03280109  RH  026%=      5-min Rain = 0
KTAS 142028Z 25009KT 33/11 A2991 RMK A01 T03260108  RH  026%=      5-min Rain = 0
KTAS 142029Z 26007KT 32/11 A2991 RMK A01 T03240111  RH  027%=      5-min Rain = 0
KTAS 142030Z 25007KT 32/11 A2991 RMK A01 T03210112  RH  028%=      5-min Rain = 0
KTAS 142031Z 23011G18KT 33/12 A2991 RMK A01 T03260116  RH  028%=      5-min Rain = 0
KTAS 142032Z 24013KT 33/11 A2991 RMK A01 T03290113  RH  027%=      5-min Rain = 0
KTAS 142033Z 23013KT 33/11 A2991 RMK A01 T03270114  RH  027%=      5-min Rain = 0
KTAS 142034Z 22009KT 33/11 A2991 RMK A01 T03270112  RH  027%=      5-min Rain = 0
KTAS 142035Z 21009KT 33/11 A2991 RMK A01 T03290113  RH  027%=      5-min Rain = 0
KTAS 142036Z 22008KT 33/11 A299 RMK A01 T03290114  RH  027%=      5-min Rain = 0
KTAS 142037Z 23008KT 33/12 A299 RMK A01 T03330116  RH  027%=      5-min Rain = 0
KTAS 142038Z 23016KT 33/12 A299 RMK A01 T03340118  RH  027%=      5-min Rain = 0
KTAS 142039Z 25013KT 33/12 A299 RMK A01 T03310120  RH  028%=      5-min Rain = 0
KTAS 142040Z 23011KT 33/12 A299 RMK A01 T03310121  RH  028%=      5-min Rain = 0
KTAS 142041Z 21012G20KT 33/12 A299 RMK A01 T03330120  RH  027%=      5-min Rain = 0
KTAS 142042Z 21013G18KT 33/12 A299 RMK A01 T03330118  RH  027%=      5-min Rain = 0
KTAS 142043Z 21010G15KT 33/12 A299 RMK A01 T03290119  RH  028%=      5-min Rain = 0
KTAS 142044Z 20010KT 33/12 A2989 RMK A01 T03280119  RH  028%=      5-min Rain = 0
KTAS 142045Z 22011G20KT 33/12 A2989 RMK A01 T03290121  RH  028%=      5-min Rain = 0
KTAS 142046Z 24014G19KT 33/12 A2989 RMK A01 T03340116  RH  027%=      5-min Rain = 0
KTAS 142047Z 24015KT 34/11 A2989 RMK A01 T03370112  RH  025%=      5-min Rain = 0
KTAS 142048Z 25016KT 33/11 A2989 RMK A01 T03330110  RH  026%=      5-min Rain = 0
KTAS 142049Z 25013KT 33/11 A2989 RMK A01 T03340109  RH  025%=      5-min Rain = 0
KTAS 142050Z 24012KT 34/11 A2989 RMK A01 T03370107  RH  025%=      5-min Rain = 0
KTAS 142051Z 24013KT 34/10 A2989 RMK A01 T03390103  RH  024%=      5-min Rain = 0
KTAS 142052Z 23012KT 34/10 A2989 RMK A01 T03380104  RH  024%=      5-min Rain = 0
KTAS 142053Z 23015KT 34/11 A2989 RMK A01 T03390105  RH  024%=      5-min Rain = 0
KTAS 142054Z 23013KT 34/10 A2989 RMK A01 T03350104  RH  024%=      5-min Rain = 0
KTAS 142055Z 23013KT 33/10 A2989 RMK A01 T03300104  RH  025%=      5-min Rain = 0
KTAS 142056Z 23013KT 33/10 A2989 RMK A01 T03280101  RH  025%=      5-min Rain = 0
KTAS 142057Z 23010KT 33/10 A2989 RMK A01 T03300095  RH  024%=      5-min Rain = 0
KTAS 142058Z 23009KT 33/10 A2988 RMK A01 T03320097  RH  024%=      5-min Rain = 0
KTAS 142059Z 22010G15KT 33/10 A2988 RMK A01 T03340100  RH  024%=      5-min Rain = 0
KTAS 142100Z 22013KT 34/10 A2988 RMK A01 T03360095  RH  023%=      5-min Rain = 0
KTAS 142101Z 21011KT 34/09 A2988 RMK A01 T03360092  RH  022%=      5-min Rain = 0
KTAS 142102Z 22012G17KT 33/10 A2988 RMK A01 T03310096  RH  024%=      5-min Rain = 0
KTAS 142103Z 23013KT 33/09 A2988 RMK A01 T03320093  RH  023%=      5-min Rain = 0
KTAS 142104Z 24011KT 33/09 A2988 RMK A01 T03340093  RH  023%=      5-min Rain = 0
KTAS 142105Z 23015G20KT 34/09 A2988 RMK A01 T03380090  RH  022%=      5-min Rain = 0
KTAS 142106Z 24016KT 34/09 A2988 RMK A01 T03380087  RH  021%=      5-min Rain = 0
KTAS 142107Z 22015KT 34/08 A2988 RMK A01 T03390082  RH  021%=      5-min Rain = 0
KTAS 142108Z 23015KT 34/08 A2988 RMK A01 T03380081  RH  021%=      5-min Rain = 0
KTAS 142109Z 23014KT 34/08 A2987 RMK A01 T03370083  RH  021%=      5-min Rain = 0
KTAS 142110Z 23012KT 33/08 A2987 RMK A01 T03340081  RH  021%=      5-min Rain = 0
KTAS 142111Z 23009KT 33/08 A2987 RMK A01 T03310081  RH  021%=      5-min Rain = 0
KTAS 142112Z 24015KT 33/09 A2987 RMK A01 T03310085  RH  022%=      5-min Rain = 0
KTAS 142113Z 25016KT 33/09 A2987 RMK A01 T03340087  RH  022%=      5-min Rain = 0
KTAS 142114Z 25014G19KT 34/09 A2987 RMK A01 T03380087  RH  021%=      5-min Rain = 0
KTAS 142115Z 24016KT 34/09 A2987 RMK A01 T03370085  RH  021%=      5-min Rain = 0
KTAS 142116Z 24016G26KT 33/08 A2986 RMK A01 T03330081  RH  021%=      5-min Rain = 0
KTAS 142117Z 23018KT 33/08 A2986 RMK A01 T03330079  RH  021%=      5-min Rain = 0
KTAS 142118Z 22016KT 33/08 A2986 RMK A01 T03340081  RH  021%=      5-min Rain = 0
KTAS 142119Z 22019G25KT 34/08 A2986 RMK A01 T03380079  RH  020%=      5-min Rain = 0
KTAS 142120Z 22017G22KT 34/08 A2986 RMK A01 T03360077  RH  020%=      5-min Rain = 0
KTAS 142121Z 24016KT 33/08 A2986 RMK A01 T03340080  RH  021%=      5-min Rain = 0
KTAS 142122Z 24016G22KT 33/08 A2986 RMK A01 T03340078  RH  021%=      5-min Rain = 0
KTAS 142123Z 22017G22KT 34/07 A2986 RMK A01 T03350074  RH  020%=      5-min Rain = 0
KTAS 142124Z 22017KT 34/07 A2986 RMK A01 T03360072  RH  020%=      5-min Rain = 0
KTAS 142125Z 21013G19KT 33/07 A2986 RMK A01 T03330071  RH  020%=      5-min Rain = 0
KTAS 142126Z 23012G18KT 34/07 A2986 RMK A01 T03360072  RH  020%=      5-min Rain = 0
KTAS 142127Z 22014KT 34/07 A2986 RMK A01 T03370072  RH  019%=      5-min Rain = 0
KTAS 142128Z 22011KT 34/07 A2986 RMK A01 T03360066  RH  019%=      5-min Rain = 0
KTAS 142129Z 24013G18KT 34/07 A2986 RMK A01 T03400071  RH  019%=      5-min Rain = 0
KTAS 142130Z 24010KT 34/07 A2986 RMK A01 T03370068  RH  019%=      5-min Rain = 0
KTAS 142131Z 23012KT 34/06 A2986 RMK A01 T03360060  RH  018%=      5-min Rain = 0
KTAS 142132Z 23013KT 34/06 A2986 RMK A01 T03370056  RH  017%=      5-min Rain = 0
KTAS 142133Z 26015KT 34/05 A2986 RMK A01 T03390050  RH  017%=      5-min Rain = 0
KTAS 142134Z 25013KT 34/04 A2986 RMK A01 T03360044  RH  016%=      5-min Rain = 0
KTAS 142135Z 22013KT 34/05 A2986 RMK A01 T03380046  RH  016%=      5-min Rain = 0
KTAS 142136Z 22014KT 34/04 A2985 RMK A01 T03400042  RH  016%=      5-min Rain = 0
KTAS 142137Z 21008KT 34/05 A2985 RMK A01 T03370045  RH  016%=      5-min Rain = 0
KTAS 142138Z 20010KT 34/04 A2985 RMK A01 T03370044  RH  016%=      5-min Rain = 0
KTAS 142139Z 22016KT 34/04 A2985 RMK A01 T03380042  RH  016%=      5-min Rain = 0
KTAS 142140Z 21016KT 34/04 A2985 RMK A01 T03400041  RH  015%=      5-min Rain = 0
KTAS 142141Z 23014KT 34/04 A2985 RMK A01 T03410042  RH  016%=      5-min Rain = 0
KTAS 142142Z 24016KT 34/04 A2985 RMK A01 T03430042  RH  015%=      5-min Rain = 0
KTAS 142143Z 24016KT 35/04 A2985 RMK A01 T03460039  RH  015%=      5-min Rain = 0
KTAS 142144Z 23016KT 35/03 A2985 RMK A01 T03460033  RH  014%=      5-min Rain = 0
KTAS 142145Z 23016KT 34/03 A2985 RMK A01 T03410033  RH  015%=      5-min Rain = 0
KTAS 142146Z 23013KT 34/03 A2985 RMK A01 T03370034  RH  015%=      5-min Rain = 0
KTAS 142147Z 23013KT 34/04 A2985 RMK A01 T03370036  RH  015%=      5-min Rain = 0
KTAS 142148Z 25013G18KT 34/04 A2985 RMK A01 T03420039  RH  015%=      5-min Rain = 0
KTAS 142149Z 25017KT 34/04 A2985 RMK A01 T03440040  RH  015%=      5-min Rain = 0
KTAS 142150Z 25014KT 34/04 A2985 RMK A01 T03420038  RH  015%=      5-min Rain = 0
KTAS 142151Z 23014KT 34/04 A2985 RMK A01 T03400039  RH  015%=      5-min Rain = 0
KTAS 142152Z 23017KT 34/04 A2985 RMK A01 T03400038  RH  015%=      5-min Rain = 0
KTAS 142153Z 24018KT 34/04 A2984 RMK A01 T03360041  RH  016%=      5-min Rain = 0
KTAS 142154Z 24019KT 34/04 A2984 RMK A01 T03380044  RH  016%=      5-min Rain = 0
KTAS 142155Z 24016KT 34/04 A2985 RMK A01 T03400043  RH  016%=      5-min Rain = 0
KTAS 142156Z 24016KT 34/04 A2985 RMK A01 T03400043  RH  016%=      5-min Rain = 0
KTAS 142157Z 23016KT 34/04 A2985 RMK A01 T03400041  RH  015%=      5-min Rain = 0
KTAS 142158Z 24011KT 34/04 A2985 RMK A01 T03400041  RH  015%=      5-min Rain = 0
KTAS 142159Z 25017G22KT 34/04 A2984 RMK A01 T03410043  RH  015%=      5-min Rain = 0
KTAS 142200Z 26014KT 34/04 A2985 RMK A01 T03390037  RH  015%=      5-min Rain = 0
KTAS 142201Z 24012KT 34/04 A2985 RMK A01 T03380037  RH  015%=      5-min Rain = 0
KTAS 142202Z 25011KT 34/03 A2984 RMK A01 T03360034  RH  015%=      5-min Rain = 0
KTAS 142203Z 25014KT 34/04 A2984 RMK A01 T03370035  RH  015%=      5-min Rain = 0
KTAS 142204Z 24020KT 34/03 A2984 RMK A01 T03400033  RH  015%=      5-min Rain = 0
KTAS 142205Z 24018KT 34/03 A2984 RMK A01 T03380032  RH  015%=      5-min Rain = 0
KTAS 142206Z 23014KT 34/03 A2984 RMK A01 T03410033  RH  014%=      5-min Rain = 0
KTAS 142207Z 24014KT 34/03 A2984 RMK A01 T03440032  RH  014%=      5-min Rain = 0
KTAS 142208Z 24015KT 34/03 A2984 RMK A01 T03440031  RH  014%=      5-min Rain = 0
KTAS 142209Z 24017KT 34/03 A2984 RMK A01 T03440027  RH  014%=      5-min Rain = 0
KTAS 142210Z 25014KT 34/03 A2984 RMK A01 T03410029  RH  014%=      5-min Rain = 0
KTAS 142211Z 25015KT 34/03 A2984 RMK A01 T03420029  RH  014%=      5-min Rain = 0
KTAS 142212Z 24012KT 34/03 A2984 RMK A01 T03420032  RH  014%=      5-min Rain = 0
KTAS 142213Z 24010G15KT 35/03 A2984 RMK A01 T03450032  RH  014%=      5-min Rain = 0
KTAS 142214Z 25010G15KT 35/03 A2984 RMK A01 T03470033  RH  014%=      5-min Rain = 0
KTAS 142215Z 22015KT 35/03 A2984 RMK A01 T03500029  RH  013%=      5-min Rain = 0
KTAS 142216Z 23013KT 35/03 A2984 RMK A01 T03460027  RH  013%=      5-min Rain = 0
KTAS 142217Z 22013KT 34/03 A2984 RMK A01 T03440027  RH  014%=      5-min Rain = 0
KTAS 142218Z 23012KT 34/03 A2984 RMK A01 T03430028  RH  014%=      5-min Rain = 0
KTAS 142219Z 25012KT 35/03 A2984 RMK A01 T03460031  RH  014%=      5-min Rain = 0
KTAS 142220Z 24012G17KT 35/03 A2984 RMK A01 T03460025  RH  013%=      5-min Rain = 0
KTAS 142221Z 26014KT 34/03 A2984 RMK A01 T03430026  RH  014%=      5-min Rain = 0
KTAS 142222Z 24013KT 34/02 A2984 RMK A01 T03420023  RH  013%=      5-min Rain = 0
KTAS 142223Z 23013KT 34/03 A2985 RMK A01 T03420027  RH  014%=      5-min Rain = 0
KTAS 142224Z 23010KT 34/03 A2985 RMK A01 T03440026  RH  014%=      5-min Rain = 0
KTAS 142225Z 23009KT 34/03 A2984 RMK A01 T03430026  RH  014%=      5-min Rain = 0
KTAS 142226Z 23014G21KT 34/03 A2984 RMK A01 T03440028  RH  014%=      5-min Rain = 0
KTAS 142227Z 25014KT 35/03 A2985 RMK A01 T03450032  RH  014%=      5-min Rain = 0
KTAS 142228Z 26012KT 35/03 A2985 RMK A01 T03450030  RH  014%=      5-min Rain = 0
KTAS 142229Z 26012KT 34/03 A2984 RMK A01 T03420028  RH  014%=      5-min Rain = 0
KTAS 142230Z 25013G18KT 34/03 A2984 RMK A01 T03420030  RH  014%=      5-min Rain = 0
KTAS 142231Z 24014KT 34/03 A2985 RMK A01 T03420028  RH  014%=      5-min Rain = 0
KTAS 142232Z 22012KT 34/03 A2985 RMK A01 T03440026  RH  013%=      5-min Rain = 0
KTAS 142233Z 22016KT 35/02 A2985 RMK A01 T03450020  RH  013%=      5-min Rain = 0
KTAS 142234Z 22018G23KT 34/01 A2985 RMK A01 T03440014  RH  012%=      5-min Rain = 0
KTAS 142235Z 21018G23KT 34/01 A2985 RMK A01 T03430012  RH  012%=      5-min Rain = 0
KTAS 142236Z 22016KT 34/01 A2985 RMK A01 T03400011  RH  012%=      5-min Rain = 0
KTAS 142237Z 23014KT 34/01 A2985 RMK A01 T03370014  RH  013%=      5-min Rain = 0
KTAS 142238Z 24017KT 34/02 A2985 RMK A01 T03390018  RH  013%=      5-min Rain = 0
KTAS 142239Z 25016KT 34/02 A2985 RMK A01 T03400017  RH  013%=      5-min Rain = 0
KTAS 142240Z 24012KT 34/02 A2985 RMK A01 T03390016  RH  013%=      5-min Rain = 0
KTAS 142241Z 24011KT 34/02 A2985 RMK A01 T03390018  RH  013%=      5-min Rain = 0
KTAS 142242Z 24012KT 34/01 A2985 RMK A01 T03410014  RH  013%=      5-min Rain = 0
KTAS 142243Z 24012KT 34/02 A2985 RMK A01 T03420018  RH  013%=      5-min Rain = 0
KTAS 142244Z 26010KT 34/02 A2985 RMK A01 T03420017  RH  013%=      5-min Rain = 0
KTAS 142245Z 24009KT 34/02 A2985 RMK A01 T03410021  RH  013%=      5-min Rain = 0
KTAS 142246Z 22014KT 35/02 A2985 RMK A01 T03450021  RH  013%=      5-min Rain = 0
KTAS 142247Z 22016KT 35/02 A2985 RMK A01 T03460016  RH  012%=      5-min Rain = 0
KTAS 142248Z 23015KT 34/01 A2985 RMK A01 T03430012  RH  012%=      5-min Rain = 0
KTAS 142249Z 24014KT 34/01 A2985 RMK A01 T03410009  RH  012%=      5-min Rain = 0
KTAS 142250Z 23013G19KT 34/01 A2985 RMK A01 T03390009  RH  012%=      5-min Rain = 0
KTAS 142251Z 22015KT 34/01 A2985 RMK A01 T03410011  RH  012%=      5-min Rain = 0
KTAS 142252Z 24014KT 34/01 A2985 RMK A01 T03420010  RH  012%=      5-min Rain = 0
KTAS 142253Z 24013KT 34/01 A2985 RMK A01 T03410011  RH  012%=      5-min Rain = 0
KTAS 142254Z 24013KT 34/01 A2985 RMK A01 T03410007  RH  012%=      5-min Rain = 0
KTAS 142255Z 25012KT 34/00 A2985 RMK A01 T03400004  RH  012%=      5-min Rain = 0
KTAS 142256Z 24011KT 34/01 A2985 RMK A01 T03400007  RH  012%=      5-min Rain = 0
KTAS 142257Z 25010KT 34/00 A2985 RMK A01 T03400003  RH  012%=      5-min Rain = 0
KTAS 142258Z 25009KT 34/00 A2985 RMK A01 T03390004  RH  012%=      5-min Rain = 0
KTAS 142259Z 24007KT 34/01 A2985 RMK A01 T03380006  RH  012%=      5-min Rain = 0
KTAS 142300Z 23008G17KT 34/01 A2985 RMK A01 T03390013  RH  013%=      5-min Rain = 0
KTAS 142301Z 22015KT 35/01 A2985 RMK A01 T03450011  RH  012%=      5-min Rain = 0
KTAS 142302Z 21013KT 34/01 A2985 RMK A01 T03420008  RH  012%=      5-min Rain = 0
KTAS 142303Z 21012KT 34/01 A2985 RMK A01 T03400007  RH  012%=      5-min Rain = 0
KTAS 142304Z 23011G16KT 34/01 A2985 RMK A01 T03410010  RH  012%=      5-min Rain = 0
KTAS 142305Z 24013KT 34/01 A2985 RMK A01 T03410009  RH  012%=      5-min Rain = 0
KTAS 142306Z 25012KT 34/01 A2985 RMK A01 T03390010  RH  012%=      5-min Rain = 0
KTAS 142307Z 25013G20KT 34/01 A2985 RMK A01 T03380011  RH  013%=      5-min Rain = 0
KTAS 142308Z 23016KT 34/02 A2985 RMK A01 T03380017  RH  013%=      5-min Rain = 0
KTAS 142309Z 23015KT 34/02 A2985 RMK A01 T03390016  RH  013%=      5-min Rain = 0
KTAS 142310Z 23013KT 34/02 A2985 RMK A01 T03370015  RH  013%=      5-min Rain = 0
KTAS 142311Z 22012G18KT 34/02 A2985 RMK A01 T03370016  RH  013%=      5-min Rain = 0
KTAS 142312Z 23017KT 34/01 A2985 RMK A01 T03390013  RH  013%=      5-min Rain = 0
KTAS 142313Z 23015KT 34/01 A2985 RMK A01 T03370011  RH  013%=      5-min Rain = 0
KTAS 142314Z 22015KT 34/01 A2985 RMK A01 T03360011  RH  013%=      5-min Rain = 0
KTAS 142315Z 24015KT 34/01 A2985 RMK A01 T03350011  RH  013%=      5-min Rain = 0
KTAS 142316Z 22016KT 34/02 A2985 RMK A01 T03360015  RH  013%=      5-min Rain = 0
KTAS 142317Z 22017KT 34/01 A2985 RMK A01 T03350012  RH  013%=      5-min Rain = 0
KTAS 142318Z 23015KT 33/01 A2985 RMK A01 T03330011  RH  013%=      5-min Rain = 0
KTAS 142319Z 22011KT 33/01 A2985 RMK A01 T03340013  RH  013%=      5-min Rain = 0
KTAS 142320Z 23011KT 34/01 A2985 RMK A01 T03350013  RH  013%=      5-min Rain = 0
KTAS 142321Z 24013KT 34/01 A2985 RMK A01 T03370008  RH  012%=      5-min Rain = 0
KTAS 142322Z 24013KT 33/01 A2985 RMK A01 T03340008  RH  013%=      5-min Rain = 0
KTAS 142323Z 23012KT 33/01 A2985 RMK A01 T03330008  RH  013%=      5-min Rain = 0
KTAS 142324Z 24011KT 33/01 A2985 RMK A01 T03340014  RH  013%=      5-min Rain = 0
KTAS 142325Z 23013KT 34/01 A2985 RMK A01 T03390012  RH  013%=      5-min Rain = 0
KTAS 142326Z 23015KT 34/01 A2985 RMK A01 T03370010  RH  013%=      5-min Rain = 0
KTAS 142327Z 24016KT 34/01 A2985 RMK A01 T03350012  RH  013%=      5-min Rain = 0
KTAS 142328Z 25016KT 33/01 A2985 RMK A01 T03340011  RH  013%=      5-min Rain = 0
KTAS 142329Z 25014KT 33/01 A2985 RMK A01 T03330011  RH  013%=      5-min Rain = 0
KTAS 142330Z 25013KT 33/01 A2985 RMK A01 T03320014  RH  013%=      5-min Rain = 0
KTAS 142331Z 25014KT 33/01 A2985 RMK A01 T03320012  RH  013%=      5-min Rain = 0
KTAS 142332Z 24011G16KT 33/01 A2985 RMK A01 T03330012  RH  013%=      5-min Rain = 0
KTAS 142333Z 23015KT 34/01 A2985 RMK A01 T03350008  RH  013%=      5-min Rain = 0
KTAS 142334Z 24012KT 33/01 A2985 RMK A01 T03340008  RH  013%=      5-min Rain = 0
KTAS 142335Z 25012KT 33/01 A2985 RMK A01 T03330010  RH  013%=      5-min Rain = 0
KTAS 142336Z 25012G17KT 33/01 A2985 RMK A01 T03340014  RH  013%=      5-min Rain = 0
KTAS 142337Z 25011KT 33/02 A2985 RMK A01 T03340015  RH  013%=      5-min Rain = 0
KTAS 142338Z 26014KT 33/01 A2985 RMK A01 T03340013  RH  013%=      5-min Rain = 0
KTAS 142339Z 26013KT 33/01 A2985 RMK A01 T03330012  RH  013%=      5-min Rain = 0
KTAS 142340Z 26012KT 33/01 A2985 RMK A01 T03320010  RH  013%=      5-min Rain = 0
KTAS 142341Z 26012KT 33/01 A2985 RMK A01 T03330012  RH  013%=      5-min Rain = 0
KTAS 142342Z 27014KT 33/01 A2984 RMK A01 T03330007  RH  013%=      5-min Rain = 0
KTAS 142343Z 26013KT 33/00 A2984 RMK A01 T03310003  RH  012%=      5-min Rain = 0
KTAS 142344Z 25014KT 33/01 A2984 RMK A01 T03300008  RH  013%=      5-min Rain = 0
KTAS 142345Z 25012KT 33/01 A2984 RMK A01 T03310008  RH  013%=      5-min Rain = 0
KTAS 142346Z 26012KT 33/01 A2984 RMK A01 T03310007  RH  013%=      5-min Rain = 0
KTAS 142347Z 26011KT 33/01 A2984 RMK A01 T03310009  RH  013%=      5-min Rain = 0
KTAS 142348Z 26012KT 33/01 A2984 RMK A01 T03310010  RH  013%=      5-min Rain = 0
KTAS 142349Z 26010KT 33/01 A2984 RMK A01 T03310009  RH  013%=      5-min Rain = 0
KTAS 142350Z 26010KT 33/01 A2984 RMK A01 T03320010  RH  013%=      5-min Rain = 0
KTAS 142351Z 26009KT 33/01 A2984 RMK A01 T03310013  RH  013%=      5-min Rain = 0
KTAS 142352Z 25013KT 33/01 A2984 RMK A01 T03320013  RH  013%=      5-min Rain = 0
KTAS 142353Z 24013KT 33/01 A2984 RMK A01 T03330014  RH  013%=      5-min Rain = 0
KTAS 142354Z 24012KT 33/01 A2984 RMK A01 T03330011  RH  013%=      5-min Rain = 0
KTAS 142355Z 23012KT 33/01 A2984 RMK A01 T03330011  RH  013%=      5-min Rain = 0
KTAS 142356Z 23014KT 33/01 A2984 RMK A01 T03330011  RH  013%=      5-min Rain = 0
KTAS 142357Z 23013KT 33/01 A2984 RMK A01 T03330013  RH  013%=      5-min Rain = 0
KTAS 142358Z 24015KT 33/02 A2984 RMK A01 T03330015  RH  013%=      5-min Rain = 0
KTAS 142359Z 23013KT 33/02 A2984 RMK A01 T03340015  RH  013%=      5-min Rain = 0
KTAS 150000Z 23013KT 33/01 A2984 RMK A01 T03330011  RH  013%=      5-min Rain = 0
KTAS 150001Z 24010KT 33/01 A2984 RMK A01 T03320011  RH  013%=      5-min Rain = 0
KTAS 150002Z 25011KT 33/01 A2984 RMK A01 T03320013  RH  013%=      5-min Rain = 0
KTAS 150003Z 25010KT 33/01 A2984 RMK A01 T03320014  RH  013%=      5-min Rain = 0
KTAS 150004Z 24009KT 33/02 A2984 RMK A01 T03320016  RH  013%=      5-min Rain = 0
KTAS 150005Z 23011KT 33/01 A2984 RMK A01 T03320013  RH  013%=      5-min Rain = 0
KTAS 150006Z 23009KT 33/01 A2984 RMK A01 T03320014  RH  013%=      5-min Rain = 0
KTAS 150007Z 23010G15KT 33/02 A2984 RMK A01 T03330017  RH  013%=      5-min Rain = 0
KTAS 150008Z 22015KT 33/01 A2984 RMK A01 T03330012  RH  013%=      5-min Rain = 0
KTAS 150009Z 22013KT 33/01 A2984 RMK A01 T03310014  RH  013%=      5-min Rain = 0
KTAS 150010Z 22015KT 33/02 A2984 RMK A01 T03310015  RH  013%=      5-min Rain = 0
KTAS 150011Z 21014KT 33/01 A2984 RMK A01 T03300013  RH  013%=      5-min Rain = 0
KTAS 150012Z 21015KT 33/01 A2984 RMK A01 T03290013  RH  013%=      5-min Rain = 0
KTAS 150013Z 21015KT 33/01 A2984 RMK A01 T03280014  RH  014%=      5-min Rain = 0
KTAS 150014Z 22014KT 33/01 A2984 RMK A01 T03280014  RH  014%=      5-min Rain = 0
KTAS 150015Z 23012KT 33/02 A2984 RMK A01 T03280015  RH  014%=      5-min Rain = 0
KTAS 150016Z 23012KT 33/02 A2984 RMK A01 T03290015  RH  014%=      5-min Rain = 0
KTAS 150017Z 23013KT 33/01 A2984 RMK A01 T03290014  RH  013%=      5-min Rain = 0
KTAS 150018Z 23012KT 33/01 A2984 RMK A01 T03280011  RH  013%=      5-min Rain = 0
KTAS 150019Z 23013KT 33/01 A2984 RMK A01 T03280011  RH  013%=      5-min Rain = 0
KTAS 150020Z 23012KT 33/01 A2984 RMK A01 T03280013  RH  014%=      5-min Rain = 0
KTAS 150021Z 24012KT 33/02 A2984 RMK A01 T03280015  RH  014%=      5-min Rain = 0
KTAS 150022Z 23016KT 33/02 A2984 RMK A01 T03280018  RH  014%=      5-min Rain = 0
KTAS 150023Z 24017KT 33/02 A2983 RMK A01 T03260020  RH  014%=      5-min Rain = 0
KTAS 150024Z 23013KT 33/02 A2984 RMK A01 T03250022  RH  015%=      5-min Rain = 0
KTAS 150025Z 23013KT 33/02 A2984 RMK A01 T03260023  RH  015%=      5-min Rain = 0
KTAS 150026Z 24013KT 33/02 A2984 RMK A01 T03250023  RH  015%=      5-min Rain = 0
KTAS 150027Z 22012KT 33/02 A2984 RMK A01 T03250022  RH  015%=      5-min Rain = 0
KTAS 150028Z 23012KT 33/02 A2984 RMK A01 T03250022  RH  015%=      5-min Rain = 0
KTAS 150029Z 23014KT 32/02 A2984 RMK A01 T03240021  RH  015%=      5-min Rain = 0
KTAS 150030Z 23014KT 32/02 A2983 RMK A01 T03240020  RH  014%=      5-min Rain = 0
KTAS 150031Z 23012KT 32/02 A2983 RMK A01 T03240021  RH  015%=      5-min Rain = 0
KTAS 150032Z 23014KT 32/02 A2984 RMK A01 T03240022  RH  015%=      5-min Rain = 0
KTAS 150033Z 24016KT 33/02 A2983 RMK A01 T03250019  RH  014%=      5-min Rain = 0
KTAS 150034Z 24015KT 33/02 A2984 RMK A01 T03250018  RH  014%=      5-min Rain = 0
KTAS 150035Z 24015KT 33/02 A2984 RMK A01 T03250020  RH  014%=      5-min Rain = 0
KTAS 150036Z 24016KT 32/02 A2984 RMK A01 T03240020  RH  015%=      5-min Rain = 0
KTAS 150037Z 24015KT 32/02 A2984 RMK A01 T03230020  RH  015%=      5-min Rain = 0
KTAS 150038Z 23015KT 32/02 A2984 RMK A01 T03230019  RH  014%=      5-min Rain = 0
KTAS 150039Z 23015KT 32/02 A2984 RMK A01 T03230019  RH  015%=      5-min Rain = 0
KTAS 150040Z 23014KT 32/02 A2984 RMK A01 T03220020  RH  015%=      5-min Rain = 0
KTAS 150041Z 23012KT 32/02 A2984 RMK A01 T03220021  RH  015%=      5-min Rain = 0
KTAS 150042Z 23012KT 32/02 A2984 RMK A01 T03210023  RH  015%=      5-min Rain = 0
KTAS 150043Z 22013KT 32/02 A2984 RMK A01 T03210022  RH  015%=      5-min Rain = 0
KTAS 150044Z 22014KT 32/02 A2984 RMK A01 T03210021  RH  015%=      5-min Rain = 0
KTAS 150045Z 22015KT 32/02 A2984 RMK A01 T03200021  RH  015%=      5-min Rain = 0
KTAS 150046Z 23014KT 32/02 A2983 RMK A01 T03200021  RH  015%=      5-min Rain = 0
KTAS 150047Z 23013KT 32/02 A2984 RMK A01 T03200023  RH  015%=      5-min Rain = 0
KTAS 150048Z 23015KT 32/02 A2984 RMK A01 T03190023  RH  015%=      5-min Rain = 0
KTAS 150049Z 22014KT 32/02 A2984 RMK A01 T03190022  RH  015%=      5-min Rain = 0
KTAS 150050Z 22015KT 32/02 A2984 RMK A01 T03190022  RH  015%=      5-min Rain = 0
KTAS 150051Z 22013KT 32/02 A2984 RMK A01 T03180022  RH  015%=      5-min Rain = 0
KTAS 150052Z 23015KT 32/02 A2984 RMK A01 T03180021  RH  015%=      5-min Rain = 0
KTAS 150053Z 22014KT 32/02 A2984 RMK A01 T03180022  RH  015%=      5-min Rain = 0
KTAS 150054Z 22012KT 32/02 A2984 RMK A01 T03180022  RH  015%=      5-min Rain = 0
KTAS 150055Z 22015KT 32/02 A2984 RMK A01 T03170023  RH  015%=      5-min Rain = 0
KTAS 150056Z 22015KT 32/02 A2984 RMK A01 T03170023  RH  015%=      5-min Rain = 0
KTAS 150057Z 22013KT 32/02 A2984 RMK A01 T03170024  RH  016%=      5-min Rain = 0
KTAS 150058Z 23012KT 32/03 A2984 RMK A01 T03160026  RH  016%=      5-min Rain = 0
KTAS 150059Z 23011KT 32/03 A2984 RMK A01 T03150027  RH  016%=      5-min Rain = 0
KTAS 150100Z 22011KT 32/03 A2984 RMK A01 T03150027  RH  016%=      5-min Rain = 0
KTAS 150101Z 22012KT 31/03 A2984 RMK A01 T03140025  RH  016%=      5-min Rain = 0
KTAS 150102Z 22013G18KT 31/02 A2984 RMK A01 T03140024  RH  016%=      5-min Rain = 0
KTAS 150103Z 22013KT 31/02 A2984 RMK A01 T03140024  RH  016%=      5-min Rain = 0
KTAS 150104Z 22015KT 31/02 A2984 RMK A01 T03140024  RH  016%=      5-min Rain = 0
KTAS 150105Z 22016KT 31/02 A2984 RMK A01 T03140024  RH  016%=      5-min Rain = 0
KTAS 150106Z 21013KT 31/03 A2984 RMK A01 T03130025  RH  016%=      5-min Rain = 0
KTAS 150107Z 22016KT 31/03 A2985 RMK A01 T03130025  RH  016%=      5-min Rain = 0
KTAS 150108Z 21014KT 31/03 A2985 RMK A01 T03130025  RH  016%=      5-min Rain = 0
KTAS 150109Z 22014KT 31/03 A2985 RMK A01 T03130026  RH  016%=      5-min Rain = 0
KTAS 150110Z 21013KT 31/03 A2985 RMK A01 T03120027  RH  016%=      5-min Rain = 0
KTAS 150111Z 21012KT 31/03 A2985 RMK A01 T03120028  RH  016%=      5-min Rain = 0
KTAS 150112Z 21012KT 31/03 A2985 RMK A01 T03110028  RH  016%=      5-min Rain = 0
KTAS 150113Z 21011KT 31/03 A2985 RMK A01 T03110028  RH  017%=      5-min Rain = 0
KTAS 150114Z 21012KT 31/03 A2985 RMK A01 T03110028  RH  016%=      5-min Rain = 0
KTAS 150115Z 21013KT 31/03 A2985 RMK A01 T03120027  RH  016%=      5-min Rain = 0
KTAS 150116Z 21012KT 31/03 A2985 RMK A01 T03120027  RH  016%=      5-min Rain = 0
KTAS 150117Z 21011KT 31/03 A2985 RMK A01 T03110027  RH  016%=      5-min Rain = 0
KTAS 150118Z 20013KT 31/03 A2986 RMK A01 T03110027  RH  017%=      5-min Rain = 0
KTAS 150119Z 21011KT 31/03 A2986 RMK A01 T03110027  RH  017%=      5-min Rain = 0
KTAS 150120Z 20010KT 31/03 A2986 RMK A01 T03090028  RH  017%=      5-min Rain = 0
KTAS 150121Z 18012KT 31/03 A2986 RMK A01 T03080028  RH  017%=      5-min Rain = 0
KTAS 150122Z 18014KT 31/05 A2986 RMK A01 T03060046  RH  019%=      5-min Rain = 0
KTAS 150123Z 18013KT 30/07 A2986 RMK A01 T03020072  RH  024%=      5-min Rain = 0
KTAS 150124Z 18013KT 30/08 A2986 RMK A01 T02980078  RH  025%=      5-min Rain = 0
KTAS 150125Z 18012KT 30/08 A2986 RMK A01 T02950082  RH  026%=      5-min Rain = 0
KTAS 150126Z 18014KT 29/08 A2987 RMK A01 T02930084  RH  027%=      5-min Rain = 0
KTAS 150127Z 17011KT 29/09 A2987 RMK A01 T02920085  RH  027%=      5-min Rain = 0
KTAS 150128Z 17011KT 29/09 A2987 RMK A01 T02920085  RH  027%=      5-min Rain = 0
KTAS 150129Z 16012KT 29/09 A2987 RMK A01 T02900093  RH  029%=      5-min Rain = 0
KTAS 150130Z 16012KT 29/10 A2987 RMK A01 T02890099  RH  031%=      5-min Rain = 0
KTAS 150131Z 16012KT 29/10 A2987 RMK A01 T02870101  RH  031%=      5-min Rain = 0
KTAS 150132Z 16013G19KT 29/10 A2987 RMK A01 T02860103  RH  032%=      5-min Rain = 0
KTAS 150133Z 15017KT 28/10 A2987 RMK A01 T02840104  RH  032%=      5-min Rain = 0
KTAS 150134Z 16013KT 28/10 A2987 RMK A01 T02840103  RH  032%=      5-min Rain = 0
KTAS 150135Z 16014KT 28/10 A2987 RMK A01 T02830103  RH  032%=      5-min Rain = 0
KTAS 150136Z 16012KT 28/10 A2987 RMK A01 T02830103  RH  032%=      5-min Rain = 0
KTAS 150137Z 16009KT 28/10 A2987 RMK A01 T02820102  RH  032%=      5-min Rain = 0
KTAS 150138Z 16016G21KT 28/10 A2987 RMK A01 T02810101  RH  032%=      5-min Rain = 0
KTAS 150139Z 16016KT 28/10 A2987 RMK A01 T02810101  RH  033%=      5-min Rain = 0
KTAS 150140Z 16013KT 28/10 A2987 RMK A01 T02810102  RH  033%=      5-min Rain = 0
KTAS 150141Z 15013KT 28/10 A2987 RMK A01 T02800102  RH  033%=      5-min Rain = 0
KTAS 150142Z 15011G16KT 28/10 A2987 RMK A01 T02800102  RH  033%=      5-min Rain = 0
KTAS 150143Z 16013KT 28/10 A2988 RMK A01 T02790103  RH  033%=      5-min Rain = 0
KTAS 150144Z 16013KT 28/10 A2988 RMK A01 T02790103  RH  033%=      5-min Rain = 0
KTAS 150145Z 16011KT 28/10 A2988 RMK A01 T02790103  RH  033%=      5-min Rain = 0
KTAS 150151Z 15014KT 28/11 A2988 RMK A01 T02770105  RH  034%=      5-min Rain = 0
KTAS 150152Z 15013KT 28/11 A2988 RMK A01 T02770105  RH  034%=      5-min Rain = 0
KTAS 150153Z 16014KT 28/11 A2988 RMK A01 T02760106  RH  035%=      5-min Rain = 0
KTAS 150154Z 16014G19KT 28/11 A2988 RMK A01 T02760108  RH  035%=      5-min Rain = 0
KTAS 150155Z 16015KT 28/11 A2988 RMK A01 T02750109  RH  036%=      5-min Rain = 0
KTAS 150156Z 16014KT 28/11 A2989 RMK A01 T02750110  RH  036%=      5-min Rain = 0
KTAS 150157Z 16016KT 28/11 A2989 RMK A01 T02750110  RH  036%=      5-min Rain = 0
KTAS 150158Z 16016KT 27/11 A2989 RMK A01 T02740111  RH  036%=      5-min Rain = 0
KTAS 150159Z 15017KT 27/11 A2989 RMK A01 T02740112  RH  036%=      5-min Rain = 0
KTAS 150200Z 16016KT 27/11 A2989 RMK A01 T02740112  RH  036%=      5-min Rain = 0
KTAS 150201Z 15014KT 27/11 A2989 RMK A01 T02740113  RH  037%=      5-min Rain = 0
KTAS 150202Z 15014KT 27/11 A2989 RMK A01 T02730113  RH  037%=      5-min Rain = 0
KTAS 150203Z 15017KT 27/11 A2989 RMK A01 T02730113  RH  037%=      5-min Rain = 0
KTAS 150204Z 15014KT 27/11 A2989 RMK A01 T02730114  RH  037%=      5-min Rain = 0
KTAS 150205Z 15013G19KT 27/11 A2989 RMK A01 T02730113  RH  037%=      5-min Rain = 0
KTAS 150206Z 15015KT 27/11 A2989 RMK A01 T02720114  RH  037%=      5-min Rain = 0
KTAS 150207Z 15015KT 27/11 A2989 RMK A01 T02720114  RH  037%=      5-min Rain = 0
KTAS 150208Z 15014KT 27/11 A2989 RMK A01 T02720114  RH  037%=      5-min Rain = 0
KTAS 150209Z 15014KT 27/11 A2989 RMK A01 T02720114  RH  037%=      5-min Rain = 0
KTAS 150210Z 15014G19KT 27/11 A2989 RMK A01 T02710114  RH  038%=      5-min Rain = 0
KTAS 150211Z 15013KT 27/11 A2989 RMK A01 T02710114  RH  038%=      5-min Rain = 0
KTAS 150212Z 15013KT 27/11 A2989 RMK A01 T02710114  RH  038%=      5-min Rain = 0
KTAS 150213Z 15012KT 27/11 A2989 RMK A01 T02700114  RH  038%=      5-min Rain = 0
KTAS 150214Z 15011KT 27/11 A2989 RMK A01 T02700114  RH  038%=      5-min Rain = 0
KTAS 150215Z 14014KT 27/11 A2989 RMK A01 T02700114  RH  038%=      5-min Rain = 0
KTAS 150216Z 14012KT 27/11 A299 RMK A01 T02700114  RH  038%=      5-min Rain = 0
KTAS 150217Z 14011KT 27/11 A299 RMK A01 T02700113  RH  038%=      5-min Rain = 0
KTAS 150218Z 14012G17KT 27/11 A299 RMK A01 T02690113  RH  038%=      5-min Rain = 0
KTAS 150219Z 15016KT 27/11 A299 RMK A01 T02690112  RH  038%=      5-min Rain = 0
KTAS 150220Z 15014KT 27/11 A299 RMK A01 T02690112  RH  037%=      5-min Rain = 0
KTAS 150221Z 15011KT 27/11 A299 RMK A01 T02690111  RH  037%=      5-min Rain = 0
KTAS 150222Z 15012KT 27/11 A299 RMK A01 T02680111  RH  038%=      5-min Rain = 0
KTAS 150223Z 15011KT 27/11 A299 RMK A01 T02670111  RH  038%=      5-min Rain = 0
KTAS 150224Z 14010KT 27/11 A299 RMK A01 T02660110  RH  038%=      5-min Rain = 0
KTAS 150225Z 15010KT 27/11 A299 RMK A01 T02660110  RH  038%=      5-min Rain = 0
KTAS 150226Z 15012KT 27/11 A299 RMK A01 T02650109  RH  038%=      5-min Rain = 0
KTAS 150227Z 14012KT 27/11 A299 RMK A01 T02650108  RH  037%=      5-min Rain = 0
KTAS 150228Z 15012KT 27/11 A299 RMK A01 T02650107  RH  037%=      5-min Rain = 0
KTAS 150229Z 15014KT 26/11 A299 RMK A01 T02640106  RH  037%=      5-min Rain = 0
KTAS 150230Z 14013KT 26/11 A299 RMK A01 T02640105  RH  037%=      5-min Rain = 0
KTAS 150231Z 15013G18KT 26/10 A2991 RMK A01 T02640104  RH  037%=      5-min Rain = 0
KTAS 150232Z 15014KT 26/10 A2991 RMK A01 T02640104  RH  037%=      5-min Rain = 0
KTAS 150233Z 15014KT 26/10 A2991 RMK A01 T02640104  RH  037%=      5-min Rain = 0
KTAS 150234Z 14014KT 26/10 A2991 RMK A01 T02640104  RH  037%=      5-min Rain = 0
KTAS 150235Z 14014KT 26/10 A2991 RMK A01 T02630104  RH  037%=      5-min Rain = 0
KTAS 150236Z 15013KT 26/10 A2991 RMK A01 T02630104  RH  037%=      5-min Rain = 0
KTAS 150237Z 15011KT 26/10 A2991 RMK A01 T02630104  RH  037%=      5-min Rain = 0
KTAS 150238Z 14012KT 26/10 A2991 RMK A01 T02620103  RH  037%=      5-min Rain = 0
KTAS 150239Z 14013KT 26/10 A2991 RMK A01 T02610103  RH  037%=      5-min Rain = 0
KTAS 150240Z 14014KT 26/10 A2991 RMK A01 T02610102  RH  037%=      5-min Rain = 0
KTAS 150241Z 14012KT 26/10 A2992 RMK A01 T02610102  RH  037%=      5-min Rain = 0
KTAS 150242Z 15010KT 26/10 A2992 RMK A01 T02610101  RH  037%=      5-min Rain = 0
KTAS 150243Z 14010KT 26/10 A2992 RMK A01 T02600100  RH  037%=      5-min Rain = 0
KTAS 150244Z 14011KT 26/10 A2992 RMK A01 T02590099  RH  036%=      5-min Rain = 0
KTAS 150245Z 14011KT 26/10 A2992 RMK A01 T02590098  RH  036%=      5-min Rain = 0
KTAS 150246Z 13012KT 26/10 A2992 RMK A01 T02580098  RH  036%=      5-min Rain = 0
KTAS 150247Z 13011KT 26/10 A2992 RMK A01 T02580097  RH  036%=      5-min Rain = 0
KTAS 150248Z 13011KT 26/10 A2992 RMK A01 T02580097  RH  036%=      5-min Rain = 0
KTAS 150249Z 13013KT 26/10 A2992 RMK A01 T02580097  RH  036%=      5-min Rain = 0
KTAS 150250Z 13013KT 26/10 A2992 RMK A01 T02580097  RH  036%=      5-min Rain = 0
KTAS 150251Z 13013KT 26/10 A2992 RMK A01 T02580097  RH  036%=      5-min Rain = 0
KTAS 150252Z 13012KT 26/10 A2993 RMK A01 T02580097  RH  036%=      5-min Rain = 0
KTAS 150253Z 13013KT 26/10 A2993 RMK A01 T02570097  RH  036%=      5-min Rain = 0
KTAS 150254Z 13011G16KT 26/10 A2993 RMK A01 T02570096  RH  036%=      5-min Rain = 0
KTAS 150255Z 13013KT 26/10 A2993 RMK A01 T02570096  RH  036%=      5-min Rain = 0
KTAS 150256Z 13013KT 26/10 A2993 RMK A01 T02570096  RH  036%=      5-min Rain = 0
KTAS 150257Z 12012KT 26/10 A2993 RMK A01 T02570096  RH  036%=      5-min Rain = 0
KTAS 150258Z 11010KT 26/10 A2993 RMK A01 T02560096  RH  036%=      5-min Rain = 0
KTAS 150259Z 11011KT 26/10 A2993 RMK A01 T02550097  RH  037%=      5-min Rain = 0
KTAS 150300Z 12013KT 26/10 A2993 RMK A01 T02550097  RH  037%=      5-min Rain = 0
KTAS 150301Z 11013KT 26/10 A2993 RMK A01 T02550098  RH  037%=      5-min Rain = 0
KTAS 150302Z 11012KT 26/10 A2993 RMK A01 T02550098  RH  037%=      5-min Rain = 0
KTAS 150303Z 11012KT 26/10 A2993 RMK A01 T02550098  RH  037%=      5-min Rain = 0
KTAS 150304Z 11011KT 25/10 A2994 RMK A01 T02540098  RH  037%=      5-min Rain = 0
KTAS 150305Z 10011KT 25/10 A2994 RMK A01 T02530099  RH  038%=      5-min Rain = 0
KTAS 150306Z 10011KT 25/10 A2994 RMK A01 T02530099  RH  038%=      5-min Rain = 0
KTAS 150307Z 10009KT 25/10 A2994 RMK A01 T02520099  RH  038%=      5-min Rain = 0
KTAS 150308Z 09009KT 25/10 A2994 RMK A01 T02510098  RH  038%=      5-min Rain = 0
KTAS 150309Z 09009KT 25/10 A2994 RMK A01 T02500098  RH  038%=      5-min Rain = 0
KTAS 150310Z 08011KT 25/10 A2994 RMK A01 T02490098  RH  038%=      5-min Rain = 0
KTAS 150311Z 08010KT 25/10 A2994 RMK A01 T02490099  RH  039%=      5-min Rain = 0
KTAS 150312Z 09011KT 25/10 A2994 RMK A01 T02480099  RH  039%=      5-min Rain = 0
KTAS 150313Z 09011KT 25/10 A2994 RMK A01 T02480099  RH  039%=      5-min Rain = 0
KTAS 150314Z 09011KT 25/10 A2994 RMK A01 T02480099  RH  039%=      5-min Rain = 0
KTAS 150315Z 09011KT 25/10 A2994 RMK A01 T02480100  RH  039%=      5-min Rain = 0
KTAS 150316Z 09011KT 25/10 A2994 RMK A01 T02480101  RH  039%=      5-min Rain = 0
KTAS 150317Z 09012KT 25/10 A2994 RMK A01 T02480102  RH  040%=      5-min Rain = 0
KTAS 150318Z 09010KT 25/10 A2994 RMK A01 T02480102  RH  040%=      5-min Rain = 0
KTAS 150319Z 10009KT 25/10 A2994 RMK A01 T02470102  RH  040%=      5-min Rain = 0
KTAS 150320Z 11009KT 25/10 A2994 RMK A01 T02470103  RH  040%=      5-min Rain = 0
KTAS 150321Z 10012KT 25/10 A2994 RMK A01 T02460103  RH  040%=      5-min Rain = 0
KTAS 150322Z 10011KT 25/11 A2994 RMK A01 T02470105  RH  041%=      5-min Rain = 0
KTAS 150323Z 10012KT 25/11 A2994 RMK A01 T02470106  RH  041%=      5-min Rain = 0
KTAS 150324Z 11011KT 25/11 A2994 RMK A01 T02480107  RH  041%=      5-min Rain = 0
KTAS 150325Z 11013KT 25/11 A2994 RMK A01 T02470107  RH  041%=      5-min Rain = 0
KTAS 150326Z 11012KT 25/11 A2994 RMK A01 T02470107  RH  041%=      5-min Rain = 0
KTAS 150327Z 11011KT 25/11 A2994 RMK A01 T02480108  RH  041%=      5-min Rain = 0
KTAS 150328Z 12011KT 25/11 A2994 RMK A01 T02470108  RH  042%=      5-min Rain = 0
KTAS 150329Z 12014KT 25/11 A2994 RMK A01 T02470110  RH  042%=      5-min Rain = 0
KTAS 150330Z 12015KT 25/11 A2993 RMK A01 T02480112  RH  042%=      5-min Rain = 0
KTAS 150331Z 12012KT 25/11 A2993 RMK A01 T02480112  RH  042%=      5-min Rain = 0
KTAS 150332Z 12011KT 25/11 A2993 RMK A01 T02480113  RH  043%=      5-min Rain = 0
KTAS 150333Z 13011KT 25/11 A2993 RMK A01 T02470114  RH  043%=      5-min Rain = 0
KTAS 150334Z 13011KT 25/11 A2993 RMK A01 T02470114  RH  043%=      5-min Rain = 0
KTAS 150335Z 12011KT 25/12 A2993 RMK A01 T02460115  RH  044%=      5-min Rain = 0
KTAS 150336Z 13010KT 25/12 A2993 RMK A01 T02460116  RH  044%=      5-min Rain = 0
KTAS 150337Z 13013G18KT 25/12 A2993 RMK A01 T02450116  RH  044%=      5-min Rain = 0
KTAS 150338Z 12013KT 25/12 A2993 RMK A01 T02450118  RH  045%=      5-min Rain = 0
KTAS 150339Z 13011KT 25/12 A2993 RMK A01 T02460118  RH  045%=      5-min Rain = 0
KTAS 150340Z 13010KT 25/12 A2993 RMK A01 T02460118  RH  045%=      5-min Rain = 0
KTAS 150341Z 13014KT 25/12 A2993 RMK A01 T02450119  RH  045%=      5-min Rain = 0
KTAS 150342Z 12011KT 25/12 A2994 RMK A01 T02460119  RH  045%=      5-min Rain = 0
KTAS 150343Z 12012KT 25/12 A2994 RMK A01 T02450120  RH  045%=      5-min Rain = 0
KTAS 150344Z 12012KT 25/12 A2994 RMK A01 T02450120  RH  046%=      5-min Rain = 0
KTAS 150345Z 12011KT 25/12 A2994 RMK A01 T02450121  RH  046%=      5-min Rain = 0
KTAS 150346Z 12011KT 24/12 A2994 RMK A01 T02440121  RH  046%=      5-min Rain = 0
KTAS 150347Z 12013KT 24/12 A2994 RMK A01 T02440123  RH  047%=      5-min Rain = 0
KTAS 150348Z 12012KT 24/12 A2994 RMK A01 T02440123  RH  047%=      5-min Rain = 0
KTAS 150349Z 12013KT 24/12 A2994 RMK A01 T02440123  RH  047%=      5-min Rain = 0
KTAS 150350Z 12013KT 24/12 A2994 RMK A01 T02440124  RH  047%=      5-min Rain = 0
KTAS 150351Z 12012KT 24/12 A2994 RMK A01 T02440124  RH  047%=      5-min Rain = 0
KTAS 150352Z 12012KT 24/13 A2995 RMK A01 T02440125  RH  047%=      5-min Rain = 0
KTAS 150353Z 12011KT 24/13 A2995 RMK A01 T02430125  RH  047%=      5-min Rain = 0
KTAS 150354Z 12014G19KT 24/13 A2995 RMK A01 T02420125  RH  048%=      5-min Rain = 0
KTAS 150355Z 12013KT 24/13 A2995 RMK A01 T02430125  RH  048%=      5-min Rain = 0
KTAS 150356Z 12013KT 24/13 A2995 RMK A01 T02430126  RH  048%=      5-min Rain = 0
KTAS 150357Z 12011KT 24/13 A2995 RMK A01 T02430126  RH  048%=      5-min Rain = 0
KTAS 150358Z 12012KT 24/13 A2995 RMK A01 T02420126  RH  048%=      5-min Rain = 0
KTAS 150359Z 12012KT 24/13 A2995 RMK A01 T02420126  RH  048%=      5-min Rain = 0
KTAS 150400Z 12012KT 24/13 A2995 RMK A01 T02420127  RH  049%=      5-min Rain = 0
KTAS 150401Z 12013KT 24/13 A2995 RMK A01 T02410127  RH  049%=      5-min Rain = 0
KTAS 150402Z 12011KT 24/13 A2995 RMK A01 T02410127  RH  049%=      5-min Rain = 0
KTAS 150403Z 12011KT 24/13 A2995 RMK A01 T02400127  RH  049%=      5-min Rain = 0
KTAS 150404Z 12012KT 24/13 A2995 RMK A01 T02400127  RH  049%=      5-min Rain = 0
KTAS 150405Z 12012KT 24/13 A2995 RMK A01 T02400128  RH  049%=      5-min Rain = 0
KTAS 150406Z 13011KT 24/13 A2995 RMK A01 T02400128  RH  049%=      5-min Rain = 0
KTAS 150407Z 13011KT 24/13 A2995 RMK A01 T02390128  RH  050%=      5-min Rain = 0
KTAS 150408Z 13011KT 24/13 A2995 RMK A01 T02390128  RH  050%=      5-min Rain = 0
KTAS 150409Z 13010KT 24/13 A2995 RMK A01 T02390128  RH  050%=      5-min Rain = 0
KTAS 150410Z 13012KT 24/13 A2995 RMK A01 T02390128  RH  050%=      5-min Rain = 0
KTAS 150411Z 13012KT 24/13 A2995 RMK A01 T02390128  RH  050%=      5-min Rain = 0
KTAS 150412Z 13013KT 24/13 A2995 RMK A01 T02390128  RH  050%=      5-min Rain = 0
KTAS 150413Z 13012KT 24/13 A2995 RMK A01 T02390128  RH  050%=      5-min Rain = 0
KTAS 150414Z 13011KT 24/13 A2995 RMK A01 T02380128  RH  050%=      5-min Rain = 0
KTAS 150415Z 12011KT 24/13 A2995 RMK A01 T02380128  RH  050%=      5-min Rain = 0
KTAS 150416Z 13012KT 24/13 A2995 RMK A01 T02370127  RH  050%=      5-min Rain = 0
KTAS 150417Z 13012KT 24/13 A2995 RMK A01 T02370127  RH  050%=      5-min Rain = 0
KTAS 150418Z 13011KT 24/13 A2995 RMK A01 T02370127  RH  050%=      5-min Rain = 0
KTAS 150419Z 13012KT 24/13 A2995 RMK A01 T02360127  RH  050%=      5-min Rain = 0
KTAS 150420Z 13011KT 24/13 A2995 RMK A01 T02360127  RH  050%=      5-min Rain = 0
KTAS 150421Z 12011KT 24/13 A2995 RMK A01 T02350127  RH  050%=      5-min Rain = 0
KTAS 150422Z 13010KT 24/13 A2995 RMK A01 T02350127  RH  051%=      5-min Rain = 0
KTAS 150423Z 13011KT 23/13 A2995 RMK A01 T02340127  RH  051%=      5-min Rain = 0
KTAS 150424Z 13011KT 23/13 A2995 RMK A01 T02340127  RH  051%=      5-min Rain = 0
KTAS 150425Z 12010KT 23/13 A2995 RMK A01 T02340127  RH  051%=      5-min Rain = 0
KTAS 150426Z 12011KT 23/13 A2995 RMK A01 T02340127  RH  051%=      5-min Rain = 0
KTAS 150427Z 12011KT 23/13 A2995 RMK A01 T02340126  RH  051%=      5-min Rain = 0
KTAS 150428Z 12011KT 23/13 A2995 RMK A01 T02330126  RH  051%=      5-min Rain = 0
KTAS 150429Z 12009KT 23/13 A2995 RMK A01 T02330126  RH  051%=      5-min Rain = 0
KTAS 150430Z 12010KT 23/13 A2995 RMK A01 T02320125  RH  051%=      5-min Rain = 0
KTAS 150431Z 12012KT 23/13 A2995 RMK A01 T02320125  RH  051%=      5-min Rain = 0
KTAS 150432Z 12010KT 23/13 A2995 RMK A01 T02320125  RH  051%=      5-min Rain = 0
KTAS 150433Z 12012KT 23/12 A2995 RMK A01 T02320124  RH  051%=      5-min Rain = 0
KTAS 150434Z 12011KT 23/12 A2995 RMK A01 T02320124  RH  051%=      5-min Rain = 0
KTAS 150435Z 13011KT 23/12 A2995 RMK A01 T02320124  RH  051%=      5-min Rain = 0
KTAS 150436Z 13010KT 23/12 A2995 RMK A01 T02310123  RH  051%=      5-min Rain = 0
KTAS 150437Z 13012KT 23/12 A2995 RMK A01 T02310123  RH  051%=      5-min Rain = 0
KTAS 150438Z 13011KT 23/12 A2995 RMK A01 T02310123  RH  050%=      5-min Rain = 0
KTAS 150439Z 13011KT 23/12 A2995 RMK A01 T02310123  RH  050%=      5-min Rain = 0
KTAS 150440Z 13011KT 23/12 A2995 RMK A01 T02320122  RH  050%=      5-min Rain = 0
KTAS 150441Z 13010KT 23/12 A2995 RMK A01 T02320122  RH  050%=      5-min Rain = 0
KTAS 150442Z 13011KT 23/12 A2995 RMK A01 T02310122  RH  050%=      5-min Rain = 0
KTAS 150443Z 13010KT 23/12 A2995 RMK A01 T02300122  RH  050%=      5-min Rain = 0
KTAS 150444Z 14010KT 23/12 A2995 RMK A01 T02300122  RH  050%=      5-min Rain = 0
KTAS 150445Z 14010KT 23/12 A2995 RMK A01 T02300122  RH  050%=      5-min Rain = 0
KTAS 150446Z 14010KT 23/12 A2995 RMK A01 T02300122  RH  051%=      5-min Rain = 0
KTAS 150447Z 14010KT 23/12 A2995 RMK A01 T02300122  RH  051%=      5-min Rain = 0
KTAS 150448Z 14011KT 23/12 A2995 RMK A01 T02300122  RH  051%=      5-min Rain = 0
KTAS 150449Z 15010KT 23/12 A2994 RMK A01 T02300122  RH  051%=      5-min Rain = 0
KTAS 150450Z 15010KT 23/12 A2994 RMK A01 T02290122  RH  051%=      5-min Rain = 0
KTAS 150451Z 15010KT 23/12 A2994 RMK A01 T02290122  RH  051%=      5-min Rain = 0
KTAS 150452Z 15010KT 23/12 A2994 RMK A01 T02280122  RH  051%=      5-min Rain = 0
KTAS 150453Z 15010KT 23/12 A2994 RMK A01 T02280122  RH  051%=      5-min Rain = 0
KTAS 150454Z 15010KT 23/12 A2994 RMK A01 T02270122  RH  051%=      5-min Rain = 0
KTAS 150455Z 15010KT 23/12 A2994 RMK A01 T02270122  RH  052%=      5-min Rain = 0
KTAS 150456Z 16010KT 23/12 A2994 RMK A01 T02260122  RH  052%=      5-min Rain = 0
KTAS 150457Z 16010KT 23/12 A2994 RMK A01 T02260123  RH  052%=      5-min Rain = 0
KTAS 150458Z 16010KT 23/12 A2994 RMK A01 T02260123  RH  052%=      5-min Rain = 0
KTAS 150459Z 16010KT 23/12 A2994 RMK A01 T02250123  RH  052%=      5-min Rain = 0

Page generated in 0.113 seconds.